<?xml version='1.0' encoding='UTF-8'?><gpx version="1.1" creator="JPX - https://github.com/jenetics/jpx" xmlns="http://www.topografix.com/GPX/1/1"><trk><trkseg><trkpt lat="42.0749614" lon="13.5313826"><ele>720.0</ele><time>2026-05-02T07:19:30.018Z</time></trkpt><trkpt lat="42.0749913" lon="13.5314899"><ele>720.0</ele><time>2026-05-02T07:19:31.03Z</time></trkpt><trkpt lat="42.0750354" lon="13.5316149"><ele>720.0</ele><time>2026-05-02T07:19:32.025Z</time></trkpt><trkpt lat="42.0750662" lon="13.5317107"><ele>720.0</ele><time>2026-05-02T07:19:33.022Z</time></trkpt><trkpt lat="42.0751069" lon="13.5318056"><ele>720.0</ele><time>2026-05-02T07:19:34.02Z</time></trkpt><trkpt lat="42.0751495" lon="13.5318997"><ele>720.0</ele><time>2026-05-02T07:19:35.036Z</time></trkpt><trkpt lat="42.0752068" lon="13.5319959"><ele>720.1666666666666</ele><time>2026-05-02T07:19:36.038Z</time></trkpt><trkpt lat="42.0752539" lon="13.5320857"><ele>720.3333333333334</ele><time>2026-05-02T07:19:37.024Z</time></trkpt><trkpt lat="42.0752982" lon="13.5321838"><ele>720.5</ele><time>2026-05-02T07:19:38.023Z</time></trkpt><trkpt lat="42.0753284" lon="13.5322826"><ele>720.6666666666667</ele><time>2026-05-02T07:19:39.043Z</time></trkpt><trkpt lat="42.0753687" lon="13.5323922"><ele>720.8333333333334</ele><time>2026-05-02T07:19:40.043Z</time></trkpt><trkpt lat="42.0754126" lon="13.5325061"><ele>721.0</ele><time>2026-05-02T07:19:41.043Z</time></trkpt><trkpt lat="42.0754679" lon="13.532612"><ele>721.0</ele><time>2026-05-02T07:19:42.038Z</time></trkpt><trkpt lat="42.075519" lon="13.5327265"><ele>721.0</ele><time>2026-05-02T07:19:43.024Z</time></trkpt><trkpt lat="42.0755697" lon="13.5328423"><ele>721.0</ele><time>2026-05-02T07:19:44.02Z</time></trkpt><trkpt lat="42.0756182" lon="13.5329594"><ele>721.0</ele><time>2026-05-02T07:19:45.057Z</time></trkpt><trkpt lat="42.0756689" lon="13.5330734"><ele>721.0</ele><time>2026-05-02T07:19:46.041Z</time></trkpt><trkpt lat="42.0757072" lon="13.5331894"><ele>720.5999999999999</ele><time>2026-05-02T07:19:47.038Z</time></trkpt><trkpt lat="42.0757549" lon="13.5333082"><ele>720.2</ele><time>2026-05-02T07:19:48.036Z</time></trkpt><trkpt lat="42.0758034" lon="13.5334294"><ele>719.8</ele><time>2026-05-02T07:19:49.028Z</time></trkpt><trkpt lat="42.0758516" lon="13.5335501"><ele>719.4000000000001</ele><time>2026-05-02T07:19:50.019Z</time></trkpt><trkpt lat="42.07591" lon="13.5336744"><ele>719.0</ele><time>2026-05-02T07:19:51.032Z</time></trkpt><trkpt lat="42.0759573" lon="13.5338103"><ele>719.8000000000001</ele><time>2026-05-02T07:19:52.061Z</time></trkpt><trkpt lat="42.0760079" lon="13.5339357"><ele>720.6</ele><time>2026-05-02T07:19:53.045Z</time></trkpt><trkpt lat="42.076054" lon="13.5340671"><ele>721.4</ele><time>2026-05-02T07:19:54.021Z</time></trkpt><trkpt lat="42.0761015" lon="13.5342026"><ele>722.2</ele><time>2026-05-02T07:19:55.047Z</time></trkpt><trkpt lat="42.0761517" lon="13.5343387"><ele>723.0</ele><time>2026-05-02T07:19:56.038Z</time></trkpt><trkpt lat="42.0762043" lon="13.5344668"><ele>722.75</ele><time>2026-05-02T07:19:57.038Z</time></trkpt><trkpt lat="42.0762632" lon="13.5345973"><ele>722.5</ele><time>2026-05-02T07:19:58.028Z</time></trkpt><trkpt lat="42.0763175" lon="13.5347325"><ele>722.25</ele><time>2026-05-02T07:19:59.047Z</time></trkpt><trkpt lat="42.0763689" lon="13.534878"><ele>722.0</ele><time>2026-05-02T07:20:00.042Z</time></trkpt><trkpt lat="42.0764348" lon="13.5350438"><ele>722.0</ele><time>2026-05-02T07:20:01.026Z</time></trkpt><trkpt lat="42.0764949" lon="13.5352263"><ele>722.0</ele><time>2026-05-02T07:20:02.036Z</time></trkpt><trkpt lat="42.0765488" lon="13.535425"><ele>722.0</ele><time>2026-05-02T07:20:03.031Z</time></trkpt><trkpt lat="42.0765894" lon="13.5356412"><ele>723.0</ele><time>2026-05-02T07:20:04.043Z</time></trkpt><trkpt lat="42.0766281" lon="13.5358656"><ele>724.0</ele><time>2026-05-02T07:20:05.047Z</time></trkpt><trkpt lat="42.0766685" lon="13.5361041"><ele>725.0</ele><time>2026-05-02T07:20:06.047Z</time></trkpt><trkpt lat="42.0767145" lon="13.5363493"><ele>725.6666666666666</ele><time>2026-05-02T07:20:07.044Z</time></trkpt><trkpt lat="42.0767657" lon="13.5365971"><ele>726.3333333333334</ele><time>2026-05-02T07:20:08.03Z</time></trkpt><trkpt lat="42.0768121" lon="13.5368367"><ele>727.0</ele><time>2026-05-02T07:20:09.032Z</time></trkpt><trkpt lat="42.07685" lon="13.5370568"><ele>727.25</ele><time>2026-05-02T07:20:10.077Z</time></trkpt><trkpt lat="42.0768837" lon="13.5372529"><ele>727.5</ele><time>2026-05-02T07:20:11.032Z</time></trkpt><trkpt lat="42.076914" lon="13.5374316"><ele>727.75</ele><time>2026-05-02T07:20:12.026Z</time></trkpt><trkpt lat="42.076953" lon="13.5376074"><ele>728.0</ele><time>2026-05-02T07:20:13.032Z</time></trkpt><trkpt lat="42.0769903" lon="13.5377833"><ele>727.25</ele><time>2026-05-02T07:20:14.113Z</time></trkpt><trkpt lat="42.0770237" lon="13.5379578"><ele>726.5</ele><time>2026-05-02T07:20:15.032Z</time></trkpt><trkpt lat="42.0770546" lon="13.5381284"><ele>725.75</ele><time>2026-05-02T07:20:16.049Z</time></trkpt><trkpt lat="42.0770881" lon="13.538292"><ele>725.0</ele><time>2026-05-02T07:20:17.04Z</time></trkpt><trkpt lat="42.0771122" lon="13.5384604"><ele>725.0</ele><time>2026-05-02T07:20:18.046Z</time></trkpt><trkpt lat="42.0771314" lon="13.5386125"><ele>725.0</ele><time>2026-05-02T07:20:19.038Z</time></trkpt><trkpt lat="42.0771565" lon="13.5387688"><ele>725.0</ele><time>2026-05-02T07:20:20.049Z</time></trkpt><trkpt lat="42.0771833" lon="13.5389149"><ele>725.0</ele><time>2026-05-02T07:20:21.052Z</time></trkpt><trkpt lat="42.0772134" lon="13.5390439"><ele>725.0</ele><time>2026-05-02T07:20:22.047Z</time></trkpt><trkpt lat="42.0772334" lon="13.5391708"><ele>725.5</ele><time>2026-05-02T07:20:23.046Z</time></trkpt><trkpt lat="42.0772284" lon="13.5392724"><ele>726.0</ele><time>2026-05-02T07:20:24.039Z</time></trkpt><trkpt lat="42.0771903" lon="13.5393547"><ele>726.5</ele><time>2026-05-02T07:20:25.051Z</time></trkpt><trkpt lat="42.077093" lon="13.5394413"><ele>727.0</ele><time>2026-05-02T07:20:27.047Z</time></trkpt><trkpt lat="42.0770164" lon="13.539436"><ele>727.5</ele><time>2026-05-02T07:20:28.069Z</time></trkpt><trkpt lat="42.0769279" lon="13.5393882"><ele>728.0</ele><time>2026-05-02T07:20:29.047Z</time></trkpt><trkpt lat="42.0768331" lon="13.5393309"><ele>728.0</ele><time>2026-05-02T07:20:30.031Z</time></trkpt><trkpt lat="42.0767389" lon="13.5392829"><ele>728.0</ele><time>2026-05-02T07:20:31.055Z</time></trkpt><trkpt lat="42.0766594" lon="13.5392415"><ele>728.0</ele><time>2026-05-02T07:20:32.045Z</time></trkpt><trkpt lat="42.0765912" lon="13.5392174"><ele>728.0</ele><time>2026-05-02T07:20:33.047Z</time></trkpt><trkpt lat="42.0765229" lon="13.5392024"><ele>728.0</ele><time>2026-05-02T07:20:34.051Z</time></trkpt><trkpt lat="42.0764446" lon="13.5391895"><ele>728.0</ele><time>2026-05-02T07:20:35.054Z</time></trkpt><trkpt lat="42.0763265" lon="13.5391809"><ele>727.0</ele><time>2026-05-02T07:20:36.051Z</time></trkpt><trkpt lat="42.0761695" lon="13.5391969"><ele>726.0</ele><time>2026-05-02T07:20:37.058Z</time></trkpt><trkpt lat="42.0759978" lon="13.5392145"><ele>725.0</ele><time>2026-05-02T07:20:38.046Z</time></trkpt><trkpt lat="42.0758388" lon="13.5392423"><ele>724.0</ele><time>2026-05-02T07:20:39.047Z</time></trkpt><trkpt lat="42.0756666" lon="13.5392566"><ele>723.0</ele><time>2026-05-02T07:20:40.043Z</time></trkpt><trkpt lat="42.0754703" lon="13.5392811"><ele>722.0</ele><time>2026-05-02T07:20:41.054Z</time></trkpt><trkpt lat="42.0752797" lon="13.5393115"><ele>722.0</ele><time>2026-05-02T07:20:42.057Z</time></trkpt><trkpt lat="42.075105" lon="13.5393271"><ele>722.0</ele><time>2026-05-02T07:20:43.049Z</time></trkpt><trkpt lat="42.0749469" lon="13.5393379"><ele>722.0</ele><time>2026-05-02T07:20:44.044Z</time></trkpt><trkpt lat="42.0748035" lon="13.5393532"><ele>721.25</ele><time>2026-05-02T07:20:45.051Z</time></trkpt><trkpt lat="42.0746658" lon="13.5393765"><ele>720.5</ele><time>2026-05-02T07:20:46.046Z</time></trkpt><trkpt lat="42.0745332" lon="13.5393929"><ele>719.75</ele><time>2026-05-02T07:20:47.057Z</time></trkpt><trkpt lat="42.0744065" lon="13.5394122"><ele>719.0</ele><time>2026-05-02T07:20:48.049Z</time></trkpt><trkpt lat="42.074281" lon="13.539423"><ele>719.0</ele><time>2026-05-02T07:20:49.055Z</time></trkpt><trkpt lat="42.0741646" lon="13.5394232"><ele>719.0</ele><time>2026-05-02T07:20:50.045Z</time></trkpt><trkpt lat="42.0740568" lon="13.5394013"><ele>719.0</ele><time>2026-05-02T07:20:51.057Z</time></trkpt><trkpt lat="42.0739578" lon="13.5393352"><ele>719.0</ele><time>2026-05-02T07:20:52.05Z</time></trkpt><trkpt lat="42.0738708" lon="13.5392078"><ele>718.8000000000001</ele><time>2026-05-02T07:20:53.061Z</time></trkpt><trkpt lat="42.073791" lon="13.5390547"><ele>718.6</ele><time>2026-05-02T07:20:54.043Z</time></trkpt><trkpt lat="42.0737515" lon="13.5389275"><ele>718.4</ele><time>2026-05-02T07:20:55.046Z</time></trkpt><trkpt lat="42.0737235" lon="13.5388223"><ele>718.2</ele><time>2026-05-02T07:20:56.042Z</time></trkpt><trkpt lat="42.0737053" lon="13.5387191"><ele>718.0</ele><time>2026-05-02T07:20:57.055Z</time></trkpt><trkpt lat="42.073666" lon="13.5385965"><ele>718.0</ele><time>2026-05-02T07:20:59.048Z</time></trkpt><trkpt lat="42.0735814" lon="13.538569"><ele>718.0</ele><time>2026-05-02T07:21:01.043Z</time></trkpt><trkpt lat="42.0734857" lon="13.5386523"><ele>718.0</ele><time>2026-05-02T07:21:03.053Z</time></trkpt><trkpt lat="42.0734201" lon="13.5386948"><ele>718.0</ele><time>2026-05-02T07:21:04.044Z</time></trkpt><trkpt lat="42.0733352" lon="13.5387379"><ele>718.0</ele><time>2026-05-02T07:21:05.054Z</time></trkpt><trkpt lat="42.0732412" lon="13.5387757"><ele>717.2</ele><time>2026-05-02T07:21:06.052Z</time></trkpt><trkpt lat="42.07314" lon="13.5388096"><ele>716.4</ele><time>2026-05-02T07:21:07.048Z</time></trkpt><trkpt lat="42.0730325" lon="13.5388475"><ele>715.6</ele><time>2026-05-02T07:21:08.04Z</time></trkpt><trkpt lat="42.0729302" lon="13.5388864"><ele>714.8000000000001</ele><time>2026-05-02T07:21:09.05Z</time></trkpt><trkpt lat="42.0728375" lon="13.5389006"><ele>714.0</ele><time>2026-05-02T07:21:10.044Z</time></trkpt><trkpt lat="42.0727528" lon="13.5388784"><ele>714.0</ele><time>2026-05-02T07:21:11.053Z</time></trkpt><trkpt lat="42.0726708" lon="13.5388284"><ele>714.0</ele><time>2026-05-02T07:21:12.038Z</time></trkpt><trkpt lat="42.0725855" lon="13.5387567"><ele>714.0</ele><time>2026-05-02T07:21:13.05Z</time></trkpt><trkpt lat="42.0724929" lon="13.5386573"><ele>714.0</ele><time>2026-05-02T07:21:14.041Z</time></trkpt><trkpt lat="42.0724054" lon="13.5385443"><ele>714.0</ele><time>2026-05-02T07:21:15.042Z</time></trkpt><trkpt lat="42.072308" lon="13.5384399"><ele>713.5</ele><time>2026-05-02T07:21:16.039Z</time></trkpt><trkpt lat="42.0721948" lon="13.5383431"><ele>713.0</ele><time>2026-05-02T07:21:17.043Z</time></trkpt><trkpt lat="42.0720764" lon="13.5382528"><ele>712.5</ele><time>2026-05-02T07:21:18.055Z</time></trkpt><trkpt lat="42.0719522" lon="13.5381612"><ele>712.0</ele><time>2026-05-02T07:21:19.047Z</time></trkpt><trkpt lat="42.0718244" lon="13.5380675"><ele>712.0</ele><time>2026-05-02T07:21:20.041Z</time></trkpt><trkpt lat="42.0716924" lon="13.537974"><ele>712.0</ele><time>2026-05-02T07:21:21.044Z</time></trkpt><trkpt lat="42.0715517" lon="13.5378853"><ele>712.0</ele><time>2026-05-02T07:21:22.042Z</time></trkpt><trkpt lat="42.0714125" lon="13.5377899"><ele>711.0</ele><time>2026-05-02T07:21:23.05Z</time></trkpt><trkpt lat="42.0712741" lon="13.5376917"><ele>710.0</ele><time>2026-05-02T07:21:24.038Z</time></trkpt><trkpt lat="42.0711338" lon="13.5375854"><ele>709.0</ele><time>2026-05-02T07:21:25.046Z</time></trkpt><trkpt lat="42.0709946" lon="13.5374653"><ele>709.0</ele><time>2026-05-02T07:21:26.046Z</time></trkpt><trkpt lat="42.0708579" lon="13.5373495"><ele>709.0</ele><time>2026-05-02T07:21:27.039Z</time></trkpt><trkpt lat="42.0707229" lon="13.5372292"><ele>709.0</ele><time>2026-05-02T07:21:28.047Z</time></trkpt><trkpt lat="42.0705924" lon="13.5371029"><ele>708.0</ele><time>2026-05-02T07:21:29.051Z</time></trkpt><trkpt lat="42.0704624" lon="13.5369859"><ele>707.0</ele><time>2026-05-02T07:21:30.051Z</time></trkpt><trkpt lat="42.0703343" lon="13.5368678"><ele>706.0</ele><time>2026-05-02T07:21:31.052Z</time></trkpt><trkpt lat="42.0702061" lon="13.5367505"><ele>706.0</ele><time>2026-05-02T07:21:32.051Z</time></trkpt><trkpt lat="42.0700769" lon="13.5366172"><ele>706.0</ele><time>2026-05-02T07:21:33.041Z</time></trkpt><trkpt lat="42.0699535" lon="13.5364821"><ele>706.0</ele><time>2026-05-02T07:21:34.041Z</time></trkpt><trkpt lat="42.0698316" lon="13.5363492"><ele>705.3333333333334</ele><time>2026-05-02T07:21:35.052Z</time></trkpt><trkpt lat="42.0697048" lon="13.5362164"><ele>704.6666666666666</ele><time>2026-05-02T07:21:36.047Z</time></trkpt><trkpt lat="42.0695751" lon="13.5360986"><ele>704.0</ele><time>2026-05-02T07:21:37.052Z</time></trkpt><trkpt lat="42.0694494" lon="13.535975"><ele>704.0</ele><time>2026-05-02T07:21:38.052Z</time></trkpt><trkpt lat="42.0693272" lon="13.535852"><ele>704.0</ele><time>2026-05-02T07:21:39.038Z</time></trkpt><trkpt lat="42.0692104" lon="13.5357246"><ele>704.0</ele><time>2026-05-02T07:21:40.043Z</time></trkpt><trkpt lat="42.0691039" lon="13.5355852"><ele>703.75</ele><time>2026-05-02T07:21:41.041Z</time></trkpt><trkpt lat="42.0690065" lon="13.5354404"><ele>703.5</ele><time>2026-05-02T07:21:42.039Z</time></trkpt><trkpt lat="42.068919" lon="13.535287"><ele>703.25</ele><time>2026-05-02T07:21:43.054Z</time></trkpt><trkpt lat="42.0688382" lon="13.5351295"><ele>703.0</ele><time>2026-05-02T07:21:44.049Z</time></trkpt><trkpt lat="42.0687666" lon="13.5349638"><ele>702.25</ele><time>2026-05-02T07:21:45.041Z</time></trkpt><trkpt lat="42.068697" lon="13.5347976"><ele>701.5</ele><time>2026-05-02T07:21:46.033Z</time></trkpt><trkpt lat="42.0686136" lon="13.5346542"><ele>700.75</ele><time>2026-05-02T07:21:47.043Z</time></trkpt><trkpt lat="42.0685059" lon="13.5345369"><ele>700.0</ele><time>2026-05-02T07:21:48.071Z</time></trkpt><trkpt lat="42.0683584" lon="13.5344637"><ele>698.3333333333334</ele><time>2026-05-02T07:21:49.025Z</time></trkpt><trkpt lat="42.068182" lon="13.5344338"><ele>696.6666666666666</ele><time>2026-05-02T07:21:50.047Z</time></trkpt><trkpt lat="42.0679938" lon="13.5344196"><ele>695.0</ele><time>2026-05-02T07:21:51.047Z</time></trkpt><trkpt lat="42.0677617" lon="13.5343844"><ele>695.0</ele><time>2026-05-02T07:21:52.051Z</time></trkpt><trkpt lat="42.067508" lon="13.5343466"><ele>695.0</ele><time>2026-05-02T07:21:53.054Z</time></trkpt><trkpt lat="42.0672516" lon="13.5343238"><ele>694.5</ele><time>2026-05-02T07:21:54.047Z</time></trkpt><trkpt lat="42.0670053" lon="13.5342961"><ele>694.0</ele><time>2026-05-02T07:21:55.058Z</time></trkpt><trkpt lat="42.0667866" lon="13.5342614"><ele>693.6666666666667</ele><time>2026-05-02T07:21:56.044Z</time></trkpt><trkpt lat="42.0665825" lon="13.5342362"><ele>693.3333333333334</ele><time>2026-05-02T07:21:57.049Z</time></trkpt><trkpt lat="42.0663848" lon="13.5342099"><ele>693.0</ele><time>2026-05-02T07:21:58.045Z</time></trkpt><trkpt lat="42.0661974" lon="13.5341738"><ele>693.0</ele><time>2026-05-02T07:21:59.037Z</time></trkpt><trkpt lat="42.0660008" lon="13.5341241"><ele>693.0</ele><time>2026-05-02T07:22:00.045Z</time></trkpt><trkpt lat="42.0658018" lon="13.5340662"><ele>693.0</ele><time>2026-05-02T07:22:01.051Z</time></trkpt><trkpt lat="42.0656042" lon="13.5339949"><ele>692.6666666666666</ele><time>2026-05-02T07:22:02.059Z</time></trkpt><trkpt lat="42.0654119" lon="13.533914"><ele>692.3333333333333</ele><time>2026-05-02T07:22:03.05Z</time></trkpt><trkpt lat="42.0652171" lon="13.5338368"><ele>692.0</ele><time>2026-05-02T07:22:04.048Z</time></trkpt><trkpt lat="42.065034" lon="13.5337502"><ele>690.6666666666666</ele><time>2026-05-02T07:22:05.054Z</time></trkpt><trkpt lat="42.0648419" lon="13.533682"><ele>689.3333333333334</ele><time>2026-05-02T07:22:06.045Z</time></trkpt><trkpt lat="42.0646482" lon="13.5336309"><ele>688.0</ele><time>2026-05-02T07:22:07.055Z</time></trkpt><trkpt lat="42.0644529" lon="13.5336169"><ele>688.0</ele><time>2026-05-02T07:22:08.049Z</time></trkpt><trkpt lat="42.0642437" lon="13.5336194"><ele>688.0</ele><time>2026-05-02T07:22:09.046Z</time></trkpt><trkpt lat="42.0640481" lon="13.5336204"><ele>688.0</ele><time>2026-05-02T07:22:10.049Z</time></trkpt><trkpt lat="42.0638503" lon="13.5336123"><ele>688.3333333333334</ele><time>2026-05-02T07:22:11.057Z</time></trkpt><trkpt lat="42.0636451" lon="13.5336124"><ele>688.6666666666666</ele><time>2026-05-02T07:22:12.038Z</time></trkpt><trkpt lat="42.0634472" lon="13.5335866"><ele>689.0</ele><time>2026-05-02T07:22:13.047Z</time></trkpt><trkpt lat="42.0632434" lon="13.5335573"><ele>688.3333333333333</ele><time>2026-05-02T07:22:14.043Z</time></trkpt><trkpt lat="42.0630362" lon="13.5335153"><ele>687.6666666666666</ele><time>2026-05-02T07:22:15.045Z</time></trkpt><trkpt lat="42.0628351" lon="13.5334711"><ele>687.0</ele><time>2026-05-02T07:22:16.026Z</time></trkpt><trkpt lat="42.0626278" lon="13.5334202"><ele>686.6666666666666</ele><time>2026-05-02T07:22:17.056Z</time></trkpt><trkpt lat="42.0624283" lon="13.5333683"><ele>686.3333333333333</ele><time>2026-05-02T07:22:18.037Z</time></trkpt><trkpt lat="42.0622426" lon="13.5333283"><ele>686.0</ele><time>2026-05-02T07:22:19.048Z</time></trkpt><trkpt lat="42.0620695" lon="13.5332852"><ele>686.0</ele><time>2026-05-02T07:22:20.037Z</time></trkpt><trkpt lat="42.0618999" lon="13.5332285"><ele>686.0</ele><time>2026-05-02T07:22:21.049Z</time></trkpt><trkpt lat="42.0617376" lon="13.5331775"><ele>686.0</ele><time>2026-05-02T07:22:22.038Z</time></trkpt><trkpt lat="42.0615819" lon="13.5331278"><ele>685.75</ele><time>2026-05-02T07:22:23.043Z</time></trkpt><trkpt lat="42.0614394" lon="13.533087"><ele>685.5</ele><time>2026-05-02T07:22:24.042Z</time></trkpt><trkpt lat="42.0613087" lon="13.5330478"><ele>685.25</ele><time>2026-05-02T07:22:25.053Z</time></trkpt><trkpt lat="42.0611952" lon="13.5330201"><ele>685.0</ele><time>2026-05-02T07:22:26.042Z</time></trkpt><trkpt lat="42.0611009" lon="13.5329928"><ele>685.0</ele><time>2026-05-02T07:22:27.041Z</time></trkpt><trkpt lat="42.0610214" lon="13.5329671"><ele>685.0</ele><time>2026-05-02T07:22:28.04Z</time></trkpt><trkpt lat="42.0609451" lon="13.5329434"><ele>685.0</ele><time>2026-05-02T07:22:29.045Z</time></trkpt><trkpt lat="42.0608751" lon="13.5329215"><ele>685.0</ele><time>2026-05-02T07:22:30.051Z</time></trkpt><trkpt lat="42.0607576" lon="13.5329186"><ele>685.0</ele><time>2026-05-02T07:22:32.051Z</time></trkpt><trkpt lat="42.0606806" lon="13.5330312"><ele>685.0</ele><time>2026-05-02T07:22:34.051Z</time></trkpt><trkpt lat="42.0606625" lon="13.5331132"><ele>685.0</ele><time>2026-05-02T07:22:35.044Z</time></trkpt><trkpt lat="42.0606705" lon="13.5332217"><ele>685.0</ele><time>2026-05-02T07:22:36.042Z</time></trkpt><trkpt lat="42.0606822" lon="13.5333427"><ele>685.0</ele><time>2026-05-02T07:22:37.061Z</time></trkpt><trkpt lat="42.0607081" lon="13.5334754"><ele>685.0</ele><time>2026-05-02T07:22:38.043Z</time></trkpt><trkpt lat="42.0607599" lon="13.5335873"><ele>685.0</ele><time>2026-05-02T07:22:39.049Z</time></trkpt><trkpt lat="42.060845" lon="13.5336775"><ele>685.5</ele><time>2026-05-02T07:22:40.051Z</time></trkpt><trkpt lat="42.0609507" lon="13.5337299"><ele>686.0</ele><time>2026-05-02T07:22:41.045Z</time></trkpt><trkpt lat="42.0610907" lon="13.5337486"><ele>686.5</ele><time>2026-05-02T07:22:42.032Z</time></trkpt><trkpt lat="42.0612367" lon="13.5337628"><ele>687.0</ele><time>2026-05-02T07:22:43.057Z</time></trkpt><trkpt lat="42.0613508" lon="13.5337842"><ele>687.0</ele><time>2026-05-02T07:22:44.053Z</time></trkpt><trkpt lat="42.0614586" lon="13.5338162"><ele>687.0</ele><time>2026-05-02T07:22:45.037Z</time></trkpt><trkpt lat="42.0615391" lon="13.5338649"><ele>687.0</ele><time>2026-05-02T07:22:46.039Z</time></trkpt><trkpt lat="42.061608" lon="13.5339432"><ele>687.0</ele><time>2026-05-02T07:22:47.052Z</time></trkpt><trkpt lat="42.0616589" lon="13.5340723"><ele>687.0</ele><time>2026-05-02T07:22:48.038Z</time></trkpt><trkpt lat="42.0616717" lon="13.5342254"><ele>687.25</ele><time>2026-05-02T07:22:49.048Z</time></trkpt><trkpt lat="42.0616488" lon="13.5343789"><ele>687.5</ele><time>2026-05-02T07:22:50.037Z</time></trkpt><trkpt lat="42.0616154" lon="13.5345439"><ele>687.75</ele><time>2026-05-02T07:22:51.054Z</time></trkpt><trkpt lat="42.0615814" lon="13.5347286"><ele>688.0</ele><time>2026-05-02T07:22:52.059Z</time></trkpt><trkpt lat="42.0615539" lon="13.5349174"><ele>688.0</ele><time>2026-05-02T07:22:53.063Z</time></trkpt><trkpt lat="42.0615308" lon="13.5351139"><ele>688.0</ele><time>2026-05-02T07:22:54.053Z</time></trkpt><trkpt lat="42.0614972" lon="13.5353176"><ele>688.0</ele><time>2026-05-02T07:22:55.043Z</time></trkpt><trkpt lat="42.0614633" lon="13.5355252"><ele>688.0</ele><time>2026-05-02T07:22:56.042Z</time></trkpt><trkpt lat="42.061441" lon="13.5357556"><ele>688.0</ele><time>2026-05-02T07:22:57.048Z</time></trkpt><trkpt lat="42.0614169" lon="13.5359882"><ele>688.0</ele><time>2026-05-02T07:22:58.058Z</time></trkpt><trkpt lat="42.0613802" lon="13.5362336"><ele>688.6666666666667</ele><time>2026-05-02T07:22:59.061Z</time></trkpt><trkpt lat="42.0613385" lon="13.5364846"><ele>689.3333333333334</ele><time>2026-05-02T07:23:00.063Z</time></trkpt><trkpt lat="42.0612963" lon="13.5367465"><ele>690.0</ele><time>2026-05-02T07:23:01.045Z</time></trkpt><trkpt lat="42.061253" lon="13.5370133"><ele>691.0</ele><time>2026-05-02T07:23:02.065Z</time></trkpt><trkpt lat="42.0612072" lon="13.5372883"><ele>692.0</ele><time>2026-05-02T07:23:03.045Z</time></trkpt><trkpt lat="42.0611606" lon="13.5375618"><ele>693.0</ele><time>2026-05-02T07:23:04.043Z</time></trkpt><trkpt lat="42.0611151" lon="13.5378336"><ele>693.3333333333334</ele><time>2026-05-02T07:23:05.041Z</time></trkpt><trkpt lat="42.06107" lon="13.5381075"><ele>693.6666666666667</ele><time>2026-05-02T07:23:06.041Z</time></trkpt><trkpt lat="42.0610277" lon="13.5383725"><ele>694.0</ele><time>2026-05-02T07:23:07.046Z</time></trkpt><trkpt lat="42.0609851" lon="13.5386153"><ele>694.3333333333334</ele><time>2026-05-02T07:23:08.047Z</time></trkpt><trkpt lat="42.0609472" lon="13.5388373"><ele>694.6666666666666</ele><time>2026-05-02T07:23:09.043Z</time></trkpt><trkpt lat="42.0609223" lon="13.5390448"><ele>695.0</ele><time>2026-05-02T07:23:10.054Z</time></trkpt><trkpt lat="42.0608918" lon="13.5392473"><ele>695.0</ele><time>2026-05-02T07:23:11.047Z</time></trkpt><trkpt lat="42.0608538" lon="13.5394541"><ele>695.0</ele><time>2026-05-02T07:23:12.04Z</time></trkpt><trkpt lat="42.0608109" lon="13.5396684"><ele>695.0</ele><time>2026-05-02T07:23:13.041Z</time></trkpt><trkpt lat="42.0607733" lon="13.5398914"><ele>694.6666666666666</ele><time>2026-05-02T07:23:14.062Z</time></trkpt><trkpt lat="42.0607398" lon="13.5401194"><ele>694.3333333333334</ele><time>2026-05-02T07:23:15.044Z</time></trkpt><trkpt lat="42.0607048" lon="13.5403548"><ele>694.0</ele><time>2026-05-02T07:23:16.042Z</time></trkpt><trkpt lat="42.0606708" lon="13.5405943"><ele>694.0</ele><time>2026-05-02T07:23:17.044Z</time></trkpt><trkpt lat="42.0606304" lon="13.5408411"><ele>694.0</ele><time>2026-05-02T07:23:18.04Z</time></trkpt><trkpt lat="42.0605876" lon="13.541088"><ele>694.0</ele><time>2026-05-02T07:23:19.044Z</time></trkpt><trkpt lat="42.060545" lon="13.5413453"><ele>694.6666666666667</ele><time>2026-05-02T07:23:20.039Z</time></trkpt><trkpt lat="42.0605067" lon="13.5415985"><ele>695.3333333333334</ele><time>2026-05-02T07:23:21.049Z</time></trkpt><trkpt lat="42.0604639" lon="13.5418632"><ele>696.0</ele><time>2026-05-02T07:23:22.045Z</time></trkpt><trkpt lat="42.0604235" lon="13.5421201"><ele>696.0</ele><time>2026-05-02T07:23:23.039Z</time></trkpt><trkpt lat="42.0603784" lon="13.5423793"><ele>696.0</ele><time>2026-05-02T07:23:24.056Z</time></trkpt><trkpt lat="42.0603298" lon="13.5426411"><ele>696.0</ele><time>2026-05-02T07:23:25.052Z</time></trkpt><trkpt lat="42.0602874" lon="13.5429062"><ele>696.3333333333334</ele><time>2026-05-02T07:23:26.044Z</time></trkpt><trkpt lat="42.0602488" lon="13.5431741"><ele>696.6666666666667</ele><time>2026-05-02T07:23:27.043Z</time></trkpt><trkpt lat="42.0602068" lon="13.5434431"><ele>697.0</ele><time>2026-05-02T07:23:28.043Z</time></trkpt><trkpt lat="42.0601658" lon="13.543712"><ele>696.6666666666667</ele><time>2026-05-02T07:23:29.044Z</time></trkpt><trkpt lat="42.0601229" lon="13.5439814"><ele>696.3333333333334</ele><time>2026-05-02T07:23:30.036Z</time></trkpt><trkpt lat="42.0600787" lon="13.5442462"><ele>696.0</ele><time>2026-05-02T07:23:31.048Z</time></trkpt><trkpt lat="42.0600348" lon="13.5445177"><ele>695.6666666666666</ele><time>2026-05-02T07:23:32.042Z</time></trkpt><trkpt lat="42.0599885" lon="13.5447856"><ele>695.3333333333333</ele><time>2026-05-02T07:23:33.044Z</time></trkpt><trkpt lat="42.0599429" lon="13.5450599"><ele>695.0</ele><time>2026-05-02T07:23:34.041Z</time></trkpt><trkpt lat="42.0598992" lon="13.5453305"><ele>695.3333333333333</ele><time>2026-05-02T07:23:35.049Z</time></trkpt><trkpt lat="42.0598549" lon="13.5456"><ele>695.6666666666666</ele><time>2026-05-02T07:23:36.042Z</time></trkpt><trkpt lat="42.0598108" lon="13.545874"><ele>696.0</ele><time>2026-05-02T07:23:37.042Z</time></trkpt><trkpt lat="42.0597655" lon="13.5461512"><ele>695.6666666666666</ele><time>2026-05-02T07:23:38.063Z</time></trkpt><trkpt lat="42.0597193" lon="13.5464288"><ele>695.3333333333333</ele><time>2026-05-02T07:23:39.045Z</time></trkpt><trkpt lat="42.0596731" lon="13.5467038"><ele>695.0</ele><time>2026-05-02T07:23:40.045Z</time></trkpt><trkpt lat="42.0596275" lon="13.5469814"><ele>695.3333333333333</ele><time>2026-05-02T07:23:41.045Z</time></trkpt><trkpt lat="42.0595838" lon="13.5472635"><ele>695.6666666666666</ele><time>2026-05-02T07:23:42.046Z</time></trkpt><trkpt lat="42.0595388" lon="13.5475354"><ele>696.0</ele><time>2026-05-02T07:23:43.046Z</time></trkpt><trkpt lat="42.0594933" lon="13.5478146"><ele>695.6666666666666</ele><time>2026-05-02T07:23:44.06Z</time></trkpt><trkpt lat="42.0594499" lon="13.5480921"><ele>695.3333333333333</ele><time>2026-05-02T07:23:45.047Z</time></trkpt><trkpt lat="42.0594083" lon="13.5483664"><ele>695.0</ele><time>2026-05-02T07:23:46.04Z</time></trkpt><trkpt lat="42.0593638" lon="13.5486401"><ele>695.6666666666666</ele><time>2026-05-02T07:23:47.044Z</time></trkpt><trkpt lat="42.0593173" lon="13.54892"><ele>696.3333333333334</ele><time>2026-05-02T07:23:48.038Z</time></trkpt><trkpt lat="42.0592706" lon="13.5492005"><ele>697.0</ele><time>2026-05-02T07:23:49.047Z</time></trkpt><trkpt lat="42.0592244" lon="13.5494821"><ele>697.0</ele><time>2026-05-02T07:23:50.046Z</time></trkpt><trkpt lat="42.05918" lon="13.5497631"><ele>697.0</ele><time>2026-05-02T07:23:51.057Z</time></trkpt><trkpt lat="42.0591355" lon="13.5500469"><ele>697.0</ele><time>2026-05-02T07:23:52.042Z</time></trkpt><trkpt lat="42.0590881" lon="13.5503303"><ele>696.3333333333334</ele><time>2026-05-02T07:23:53.039Z</time></trkpt><trkpt lat="42.0590437" lon="13.5506115"><ele>695.6666666666666</ele><time>2026-05-02T07:23:54.046Z</time></trkpt><trkpt lat="42.0589984" lon="13.5508914"><ele>695.0</ele><time>2026-05-02T07:23:55.044Z</time></trkpt><trkpt lat="42.0589543" lon="13.5511713"><ele>694.0</ele><time>2026-05-02T07:23:56.06Z</time></trkpt><trkpt lat="42.0589074" lon="13.5514509"><ele>693.0</ele><time>2026-05-02T07:23:57.041Z</time></trkpt><trkpt lat="42.0588619" lon="13.5517333"><ele>692.0</ele><time>2026-05-02T07:23:58.041Z</time></trkpt><trkpt lat="42.0588118" lon="13.5520033"><ele>692.3333333333333</ele><time>2026-05-02T07:23:59.045Z</time></trkpt><trkpt lat="42.0587657" lon="13.5522836"><ele>692.6666666666666</ele><time>2026-05-02T07:24:00.04Z</time></trkpt><trkpt lat="42.0587201" lon="13.5525657"><ele>693.0</ele><time>2026-05-02T07:24:01.044Z</time></trkpt><trkpt lat="42.0586792" lon="13.5528424"><ele>693.6666666666666</ele><time>2026-05-02T07:24:02.068Z</time></trkpt><trkpt lat="42.0586408" lon="13.5530947"><ele>694.3333333333333</ele><time>2026-05-02T07:24:03.049Z</time></trkpt><trkpt lat="42.058601" lon="13.5533363"><ele>695.0</ele><time>2026-05-02T07:24:04.047Z</time></trkpt><trkpt lat="42.0585614" lon="13.5535732"><ele>696.3333333333333</ele><time>2026-05-02T07:24:05.047Z</time></trkpt><trkpt lat="42.0585224" lon="13.5538041"><ele>697.6666666666666</ele><time>2026-05-02T07:24:06.041Z</time></trkpt><trkpt lat="42.0584826" lon="13.5540375"><ele>699.0</ele><time>2026-05-02T07:24:07.055Z</time></trkpt><trkpt lat="42.0584438" lon="13.554271"><ele>699.0</ele><time>2026-05-02T07:24:08.04Z</time></trkpt><trkpt lat="42.0584091" lon="13.5545048"><ele>699.0</ele><time>2026-05-02T07:24:09.046Z</time></trkpt><trkpt lat="42.058374" lon="13.5547499"><ele>699.0</ele><time>2026-05-02T07:24:10.041Z</time></trkpt><trkpt lat="42.0583381" lon="13.554999"><ele>698.6666666666666</ele><time>2026-05-02T07:24:11.042Z</time></trkpt><trkpt lat="42.0583075" lon="13.5552508"><ele>698.3333333333333</ele><time>2026-05-02T07:24:12.039Z</time></trkpt><trkpt lat="42.0582803" lon="13.5554991"><ele>698.0</ele><time>2026-05-02T07:24:13.04Z</time></trkpt><trkpt lat="42.0582514" lon="13.555758"><ele>697.3333333333333</ele><time>2026-05-02T07:24:14.041Z</time></trkpt><trkpt lat="42.0582267" lon="13.5560375"><ele>696.6666666666666</ele><time>2026-05-02T07:24:15.039Z</time></trkpt><trkpt lat="42.058206" lon="13.5563234"><ele>696.0</ele><time>2026-05-02T07:24:16.044Z</time></trkpt><trkpt lat="42.0581862" lon="13.5565933"><ele>696.0</ele><time>2026-05-02T07:24:17.069Z</time></trkpt><trkpt lat="42.0581697" lon="13.5568313"><ele>696.0</ele><time>2026-05-02T07:24:18.039Z</time></trkpt><trkpt lat="42.0581535" lon="13.5570722"><ele>696.0</ele><time>2026-05-02T07:24:19.023Z</time></trkpt><trkpt lat="42.0581454" lon="13.557336"><ele>695.6666666666666</ele><time>2026-05-02T07:24:20.026Z</time></trkpt><trkpt lat="42.0581358" lon="13.5575969"><ele>695.3333333333333</ele><time>2026-05-02T07:24:21.031Z</time></trkpt><trkpt lat="42.058121" lon="13.5578472"><ele>695.0</ele><time>2026-05-02T07:24:22.053Z</time></trkpt><trkpt lat="42.0581109" lon="13.5580946"><ele>694.75</ele><time>2026-05-02T07:24:23.044Z</time></trkpt><trkpt lat="42.0581282" lon="13.5583055"><ele>694.5</ele><time>2026-05-02T07:24:24.056Z</time></trkpt><trkpt lat="42.058149" lon="13.5584864"><ele>694.25</ele><time>2026-05-02T07:24:25.043Z</time></trkpt><trkpt lat="42.0581577" lon="13.5586584"><ele>694.0</ele><time>2026-05-02T07:24:26.041Z</time></trkpt><trkpt lat="42.058123" lon="13.5588128"><ele>693.75</ele><time>2026-05-02T07:24:27.049Z</time></trkpt><trkpt lat="42.0580661" lon="13.5589517"><ele>693.5</ele><time>2026-05-02T07:24:28.042Z</time></trkpt><trkpt lat="42.0580145" lon="13.5590844"><ele>693.25</ele><time>2026-05-02T07:24:29.062Z</time></trkpt><trkpt lat="42.058007" lon="13.5592317"><ele>693.0</ele><time>2026-05-02T07:24:30.041Z</time></trkpt><trkpt lat="42.0580361" lon="13.5593911"><ele>693.0</ele><time>2026-05-02T07:24:31.055Z</time></trkpt><trkpt lat="42.0580699" lon="13.5595659"><ele>693.0</ele><time>2026-05-02T07:24:32.052Z</time></trkpt><trkpt lat="42.0580681" lon="13.5597545"><ele>693.0</ele><time>2026-05-02T07:24:33.047Z</time></trkpt><trkpt lat="42.0580331" lon="13.5599519"><ele>693.0</ele><time>2026-05-02T07:24:34.046Z</time></trkpt><trkpt lat="42.0579818" lon="13.5601624"><ele>693.0</ele><time>2026-05-02T07:24:35.042Z</time></trkpt><trkpt lat="42.0579434" lon="13.5603904"><ele>693.0</ele><time>2026-05-02T07:24:36.042Z</time></trkpt><trkpt lat="42.0579223" lon="13.56063"><ele>693.0</ele><time>2026-05-02T07:24:37.045Z</time></trkpt><trkpt lat="42.0579122" lon="13.560886"><ele>693.0</ele><time>2026-05-02T07:24:38.044Z</time></trkpt><trkpt lat="42.0579008" lon="13.5611473"><ele>693.0</ele><time>2026-05-02T07:24:39.046Z</time></trkpt><trkpt lat="42.0578866" lon="13.5614111"><ele>693.0</ele><time>2026-05-02T07:24:40.037Z</time></trkpt><trkpt lat="42.0578726" lon="13.5616827"><ele>693.0</ele><time>2026-05-02T07:24:41.057Z</time></trkpt><trkpt lat="42.0578578" lon="13.5619562"><ele>693.0</ele><time>2026-05-02T07:24:42.041Z</time></trkpt><trkpt lat="42.0578412" lon="13.5622263"><ele>693.0</ele><time>2026-05-02T07:24:43.058Z</time></trkpt><trkpt lat="42.0578251" lon="13.5625082"><ele>693.0</ele><time>2026-05-02T07:24:44.04Z</time></trkpt><trkpt lat="42.0578078" lon="13.5627903"><ele>693.0</ele><time>2026-05-02T07:24:45.038Z</time></trkpt><trkpt lat="42.057794" lon="13.5630728"><ele>693.0</ele><time>2026-05-02T07:24:46.038Z</time></trkpt><trkpt lat="42.0577792" lon="13.5633562"><ele>692.6666666666666</ele><time>2026-05-02T07:24:47.041Z</time></trkpt><trkpt lat="42.0577654" lon="13.56364"><ele>692.3333333333333</ele><time>2026-05-02T07:24:48.042Z</time></trkpt><trkpt lat="42.057752" lon="13.5639203"><ele>692.0</ele><time>2026-05-02T07:24:49.042Z</time></trkpt><trkpt lat="42.0577385" lon="13.5641958"><ele>692.0</ele><time>2026-05-02T07:24:50.039Z</time></trkpt><trkpt lat="42.057721" lon="13.5644655"><ele>692.0</ele><time>2026-05-02T07:24:51.04Z</time></trkpt><trkpt lat="42.0577071" lon="13.5647318"><ele>692.0</ele><time>2026-05-02T07:24:52.037Z</time></trkpt><trkpt lat="42.0576925" lon="13.564986"><ele>691.3333333333333</ele><time>2026-05-02T07:24:53.037Z</time></trkpt><trkpt lat="42.0576787" lon="13.5652394"><ele>690.6666666666666</ele><time>2026-05-02T07:24:54.032Z</time></trkpt><trkpt lat="42.0576632" lon="13.5654793"><ele>690.0</ele><time>2026-05-02T07:24:55.061Z</time></trkpt><trkpt lat="42.0576489" lon="13.5657112"><ele>689.6666666666666</ele><time>2026-05-02T07:24:56.044Z</time></trkpt><trkpt lat="42.0576339" lon="13.5659351"><ele>689.3333333333333</ele><time>2026-05-02T07:24:57.044Z</time></trkpt><trkpt lat="42.0576236" lon="13.5661442"><ele>689.0</ele><time>2026-05-02T07:24:58.037Z</time></trkpt><trkpt lat="42.0576176" lon="13.5663444"><ele>689.0</ele><time>2026-05-02T07:24:59.043Z</time></trkpt><trkpt lat="42.0576125" lon="13.5665384"><ele>689.0</ele><time>2026-05-02T07:25:00.051Z</time></trkpt><trkpt lat="42.0576121" lon="13.5667407"><ele>689.0</ele><time>2026-05-02T07:25:01.04Z</time></trkpt><trkpt lat="42.0576077" lon="13.5669468"><ele>689.0</ele><time>2026-05-02T07:25:02.045Z</time></trkpt><trkpt lat="42.057598" lon="13.5671559"><ele>689.0</ele><time>2026-05-02T07:25:03.041Z</time></trkpt><trkpt lat="42.0575791" lon="13.5673723"><ele>689.0</ele><time>2026-05-02T07:25:04.053Z</time></trkpt><trkpt lat="42.0575471" lon="13.567596"><ele>689.0</ele><time>2026-05-02T07:25:05.039Z</time></trkpt><trkpt lat="42.0575243" lon="13.5678363"><ele>688.6666666666666</ele><time>2026-05-02T07:25:06.044Z</time></trkpt><trkpt lat="42.0575145" lon="13.5681032"><ele>688.3333333333334</ele><time>2026-05-02T07:25:07.043Z</time></trkpt><trkpt lat="42.0575003" lon="13.5684013"><ele>688.0</ele><time>2026-05-02T07:25:08.04Z</time></trkpt><trkpt lat="42.0574897" lon="13.5687286"><ele>688.0</ele><time>2026-05-02T07:25:09.043Z</time></trkpt><trkpt lat="42.0574836" lon="13.5690471"><ele>688.0</ele><time>2026-05-02T07:25:10.044Z</time></trkpt><trkpt lat="42.0574733" lon="13.5693532"><ele>686.5</ele><time>2026-05-02T07:25:11.044Z</time></trkpt><trkpt lat="42.0574564" lon="13.5696646"><ele>685.0</ele><time>2026-05-02T07:25:12.042Z</time></trkpt><trkpt lat="42.0574354" lon="13.5699862"><ele>685.0</ele><time>2026-05-02T07:25:13.043Z</time></trkpt><trkpt lat="42.0574093" lon="13.5703114"><ele>685.0</ele><time>2026-05-02T07:25:14.042Z</time></trkpt><trkpt lat="42.057383" lon="13.5706361"><ele>684.5</ele><time>2026-05-02T07:25:15.05Z</time></trkpt><trkpt lat="42.0573554" lon="13.5709642"><ele>684.0</ele><time>2026-05-02T07:25:16.041Z</time></trkpt><trkpt lat="42.057331" lon="13.5713024"><ele>683.0</ele><time>2026-05-02T07:25:17.069Z</time></trkpt><trkpt lat="42.0573126" lon="13.5716442"><ele>682.0</ele><time>2026-05-02T07:25:18.041Z</time></trkpt><trkpt lat="42.057294" lon="13.5719953"><ele>682.5</ele><time>2026-05-02T07:25:19.048Z</time></trkpt><trkpt lat="42.0572783" lon="13.5723659"><ele>683.0</ele><time>2026-05-02T07:25:20.039Z</time></trkpt><trkpt lat="42.0572556" lon="13.5727795"><ele>685.0</ele><time>2026-05-02T07:25:21.042Z</time></trkpt><trkpt lat="42.0572279" lon="13.5732118"><ele>687.0</ele><time>2026-05-02T07:25:22.04Z</time></trkpt><trkpt lat="42.0571879" lon="13.573685"><ele>687.0</ele><time>2026-05-02T07:25:23.047Z</time></trkpt><trkpt lat="42.0571613" lon="13.5741655"><ele>687.0</ele><time>2026-05-02T07:25:24.037Z</time></trkpt><trkpt lat="42.0571315" lon="13.5746607"><ele>687.0</ele><time>2026-05-02T07:25:25.061Z</time></trkpt><trkpt lat="42.057104" lon="13.5751766"><ele>687.0</ele><time>2026-05-02T07:25:26.039Z</time></trkpt><trkpt lat="42.0570789" lon="13.5756702"><ele>687.0</ele><time>2026-05-02T07:25:27.042Z</time></trkpt><trkpt lat="42.0570557" lon="13.5761233"><ele>687.0</ele><time>2026-05-02T07:25:28.04Z</time></trkpt><trkpt lat="42.0570343" lon="13.576548"><ele>687.0</ele><time>2026-05-02T07:25:29.044Z</time></trkpt><trkpt lat="42.0570075" lon="13.5769535"><ele>687.0</ele><time>2026-05-02T07:25:30.06Z</time></trkpt><trkpt lat="42.0569825" lon="13.5773298"><ele>687.0</ele><time>2026-05-02T07:25:31.043Z</time></trkpt><trkpt lat="42.0569652" lon="13.5776838"><ele>687.0</ele><time>2026-05-02T07:25:32.036Z</time></trkpt><trkpt lat="42.0569372" lon="13.5780169"><ele>687.0</ele><time>2026-05-02T07:25:33.045Z</time></trkpt><trkpt lat="42.0569153" lon="13.5783428"><ele>687.0</ele><time>2026-05-02T07:25:34.037Z</time></trkpt><trkpt lat="42.0568966" lon="13.5786423"><ele>687.6666666666666</ele><time>2026-05-02T07:25:35.04Z</time></trkpt><trkpt lat="42.0568797" lon="13.5789342"><ele>688.3333333333333</ele><time>2026-05-02T07:25:36.039Z</time></trkpt><trkpt lat="42.0568544" lon="13.5792157"><ele>689.0</ele><time>2026-05-02T07:25:37.073Z</time></trkpt><trkpt lat="42.0568162" lon="13.5794826"><ele>689.6666666666666</ele><time>2026-05-02T07:25:38.041Z</time></trkpt><trkpt lat="42.0567585" lon="13.5797256"><ele>690.3333333333334</ele><time>2026-05-02T07:25:39.048Z</time></trkpt><trkpt lat="42.0566816" lon="13.5799562"><ele>691.0</ele><time>2026-05-02T07:25:40.047Z</time></trkpt><trkpt lat="42.0565894" lon="13.5801571"><ele>690.5</ele><time>2026-05-02T07:25:41.058Z</time></trkpt><trkpt lat="42.0564967" lon="13.5803375"><ele>690.0</ele><time>2026-05-02T07:25:42.053Z</time></trkpt><trkpt lat="42.0564143" lon="13.5805004"><ele>689.5</ele><time>2026-05-02T07:25:43.051Z</time></trkpt><trkpt lat="42.0563396" lon="13.5806538"><ele>689.0</ele><time>2026-05-02T07:25:44.049Z</time></trkpt><trkpt lat="42.056258" lon="13.5807683"><ele>689.0</ele><time>2026-05-02T07:25:45.056Z</time></trkpt><trkpt lat="42.0561609" lon="13.5808533"><ele>689.0</ele><time>2026-05-02T07:25:46.045Z</time></trkpt><trkpt lat="42.0560487" lon="13.5809082"><ele>689.0</ele><time>2026-05-02T07:25:47.047Z</time></trkpt><trkpt lat="42.0559294" lon="13.58093"><ele>689.0</ele><time>2026-05-02T07:25:48.041Z</time></trkpt><trkpt lat="42.0558159" lon="13.5809236"><ele>688.5</ele><time>2026-05-02T07:25:49.051Z</time></trkpt><trkpt lat="42.0557076" lon="13.580872"><ele>688.0</ele><time>2026-05-02T07:25:50.043Z</time></trkpt><trkpt lat="42.0555973" lon="13.5807972"><ele>687.5</ele><time>2026-05-02T07:25:51.047Z</time></trkpt><trkpt lat="42.0554767" lon="13.5806854"><ele>687.0</ele><time>2026-05-02T07:25:52.042Z</time></trkpt><trkpt lat="42.0553407" lon="13.5805849"><ele>687.0</ele><time>2026-05-02T07:25:53.038Z</time></trkpt><trkpt lat="42.0552013" lon="13.5804938"><ele>687.0</ele><time>2026-05-02T07:25:54.052Z</time></trkpt><trkpt lat="42.0550559" lon="13.5803991"><ele>687.0</ele><time>2026-05-02T07:25:55.045Z</time></trkpt><trkpt lat="42.0549006" lon="13.5803016"><ele>687.3333333333334</ele><time>2026-05-02T07:25:56.045Z</time></trkpt><trkpt lat="42.0547318" lon="13.5802038"><ele>687.6666666666667</ele><time>2026-05-02T07:25:57.051Z</time></trkpt><trkpt lat="42.0545406" lon="13.5801123"><ele>688.0</ele><time>2026-05-02T07:25:58.046Z</time></trkpt><trkpt lat="42.0543314" lon="13.5800264"><ele>688.0</ele><time>2026-05-02T07:25:59.043Z</time></trkpt><trkpt lat="42.054134" lon="13.5799337"><ele>688.0</ele><time>2026-05-02T07:26:00.055Z</time></trkpt><trkpt lat="42.0539551" lon="13.5798396"><ele>688.0</ele><time>2026-05-02T07:26:01.045Z</time></trkpt><trkpt lat="42.0537868" lon="13.5797554"><ele>688.0</ele><time>2026-05-02T07:26:02.064Z</time></trkpt><trkpt lat="42.0536366" lon="13.5796797"><ele>688.0</ele><time>2026-05-02T07:26:03.041Z</time></trkpt><trkpt lat="42.053499" lon="13.5796156"><ele>688.0</ele><time>2026-05-02T07:26:04.046Z</time></trkpt><trkpt lat="42.0533785" lon="13.5795527"><ele>688.0</ele><time>2026-05-02T07:26:05.05Z</time></trkpt><trkpt lat="42.0532674" lon="13.5795115"><ele>687.75</ele><time>2026-05-02T07:26:06.041Z</time></trkpt><trkpt lat="42.0531379" lon="13.5794974"><ele>687.5</ele><time>2026-05-02T07:26:07.066Z</time></trkpt><trkpt lat="42.0529922" lon="13.5795124"><ele>687.25</ele><time>2026-05-02T07:26:08.039Z</time></trkpt><trkpt lat="42.0528276" lon="13.5795705"><ele>687.0</ele><time>2026-05-02T07:26:09.043Z</time></trkpt><trkpt lat="42.0526693" lon="13.5796505"><ele>687.0</ele><time>2026-05-02T07:26:10.045Z</time></trkpt><trkpt lat="42.0525159" lon="13.5797258"><ele>687.0</ele><time>2026-05-02T07:26:11.045Z</time></trkpt><trkpt lat="42.0523737" lon="13.5797657"><ele>687.0</ele><time>2026-05-02T07:26:12.051Z</time></trkpt><trkpt lat="42.0522398" lon="13.5797647"><ele>687.0</ele><time>2026-05-02T07:26:13.047Z</time></trkpt><trkpt lat="42.052098" lon="13.5797036"><ele>686.3333333333334</ele><time>2026-05-02T07:26:14.048Z</time></trkpt><trkpt lat="42.0519511" lon="13.5796056"><ele>685.6666666666667</ele><time>2026-05-02T07:26:15.043Z</time></trkpt><trkpt lat="42.0518051" lon="13.5794958"><ele>685.0</ele><time>2026-05-02T07:26:16.051Z</time></trkpt><trkpt lat="42.0516524" lon="13.5793819"><ele>684.3333333333334</ele><time>2026-05-02T07:26:17.04Z</time></trkpt><trkpt lat="42.0515043" lon="13.5792576"><ele>683.6666666666666</ele><time>2026-05-02T07:26:18.04Z</time></trkpt><trkpt lat="42.0513673" lon="13.5791003"><ele>683.0</ele><time>2026-05-02T07:26:19.043Z</time></trkpt><trkpt lat="42.0512437" lon="13.5789299"><ele>683.0</ele><time>2026-05-02T07:26:20.039Z</time></trkpt><trkpt lat="42.0511233" lon="13.5787601"><ele>683.0</ele><time>2026-05-02T07:26:21.052Z</time></trkpt><trkpt lat="42.0510041" lon="13.5786102"><ele>683.0</ele><time>2026-05-02T07:26:22.037Z</time></trkpt><trkpt lat="42.0508939" lon="13.5784758"><ele>682.25</ele><time>2026-05-02T07:26:23.069Z</time></trkpt><trkpt lat="42.0507854" lon="13.5783556"><ele>681.5</ele><time>2026-05-02T07:26:24.042Z</time></trkpt><trkpt lat="42.0506842" lon="13.5782551"><ele>680.75</ele><time>2026-05-02T07:26:25.044Z</time></trkpt><trkpt lat="42.0505825" lon="13.5781594"><ele>680.0</ele><time>2026-05-02T07:26:26.04Z</time></trkpt><trkpt lat="42.050483" lon="13.5780775"><ele>680.0</ele><time>2026-05-02T07:26:27.056Z</time></trkpt><trkpt lat="42.0503988" lon="13.5779974"><ele>680.0</ele><time>2026-05-02T07:26:28.057Z</time></trkpt><trkpt lat="42.050313" lon="13.5779199"><ele>680.0</ele><time>2026-05-02T07:26:29.051Z</time></trkpt><trkpt lat="42.0502343" lon="13.5778542"><ele>680.0</ele><time>2026-05-02T07:26:30.065Z</time></trkpt><trkpt lat="42.0501636" lon="13.5777861"><ele>680.0</ele><time>2026-05-02T07:26:31.048Z</time></trkpt><trkpt lat="42.0501052" lon="13.5777259"><ele>679.6</ele><time>2026-05-02T07:26:32.038Z</time></trkpt><trkpt lat="42.0500378" lon="13.5776421"><ele>679.2</ele><time>2026-05-02T07:26:34.044Z</time></trkpt><trkpt lat="42.0500236" lon="13.5775518"><ele>678.8</ele><time>2026-05-02T07:26:36.041Z</time></trkpt><trkpt lat="42.0500841" lon="13.5774294"><ele>678.4</ele><time>2026-05-02T07:26:38.042Z</time></trkpt><trkpt lat="42.0501548" lon="13.5772814"><ele>678.0</ele><time>2026-05-02T07:26:40.042Z</time></trkpt><trkpt lat="42.0501847" lon="13.5772033"><ele>678.0</ele><time>2026-05-02T07:26:41.042Z</time></trkpt><trkpt lat="42.0502457" lon="13.5770652"><ele>678.0</ele><time>2026-05-02T07:26:43.042Z</time></trkpt><trkpt lat="42.0503004" lon="13.5769436"><ele>678.0</ele><time>2026-05-02T07:26:45.044Z</time></trkpt><trkpt lat="42.0503534" lon="13.5768677"><ele>678.0</ele><time>2026-05-02T07:26:47.045Z</time></trkpt><trkpt lat="42.0504066" lon="13.576923"><ele>678.0</ele><time>2026-05-02T07:26:51.048Z</time></trkpt><trkpt lat="42.0505064" lon="13.5769985"><ele>678.0</ele><time>2026-05-02T08:41:48.06Z</time></trkpt><trkpt lat="42.0505411" lon="13.5771235"><ele>678.0</ele><time>2026-05-02T08:41:50.056Z</time></trkpt><trkpt lat="42.0505033" lon="13.5772337"><ele>678.0</ele><time>2026-05-02T08:41:52.027Z</time></trkpt><trkpt lat="42.0504267" lon="13.5773119"><ele>678.0</ele><time>2026-05-02T08:41:54.036Z</time></trkpt><trkpt lat="42.0503293" lon="13.5773425"><ele>678.0</ele><time>2026-05-02T08:41:56.032Z</time></trkpt><trkpt lat="42.0502297" lon="13.577368"><ele>678.0</ele><time>2026-05-02T08:41:58.031Z</time></trkpt><trkpt lat="42.0501246" lon="13.5774"><ele>678.0</ele><time>2026-05-02T08:42:00.042Z</time></trkpt><trkpt lat="42.0500481" lon="13.577465"><ele>678.0</ele><time>2026-05-02T08:42:02.033Z</time></trkpt><trkpt lat="42.0500155" lon="13.5775512"><ele>678.0</ele><time>2026-05-02T08:42:04.034Z</time></trkpt><trkpt lat="42.0500318" lon="13.5776603"><ele>678.0</ele><time>2026-05-02T08:42:06.039Z</time></trkpt><trkpt lat="42.050075" lon="13.5777263"><ele>678.0</ele><time>2026-05-02T08:42:07.041Z</time></trkpt><trkpt lat="42.0501344" lon="13.5777878"><ele>678.0</ele><time>2026-05-02T08:42:08.029Z</time></trkpt><trkpt lat="42.0502019" lon="13.5778488"><ele>678.0</ele><time>2026-05-02T08:42:09.037Z</time></trkpt><trkpt lat="42.0502672" lon="13.5779012"><ele>678.0</ele><time>2026-05-02T08:42:10.065Z</time></trkpt><trkpt lat="42.0503346" lon="13.5779613"><ele>678.0</ele><time>2026-05-02T08:42:11.041Z</time></trkpt><trkpt lat="42.0504096" lon="13.5780317"><ele>678.0</ele><time>2026-05-02T08:42:12.033Z</time></trkpt><trkpt lat="42.050489" lon="13.5781062"><ele>678.0</ele><time>2026-05-02T08:42:13.047Z</time></trkpt><trkpt lat="42.0505679" lon="13.5781806"><ele>678.4</ele><time>2026-05-02T08:42:14.038Z</time></trkpt><trkpt lat="42.0506524" lon="13.5782559"><ele>678.8</ele><time>2026-05-02T08:42:15.066Z</time></trkpt><trkpt lat="42.0507329" lon="13.5783303"><ele>679.2</ele><time>2026-05-02T08:42:16.027Z</time></trkpt><trkpt lat="42.0508155" lon="13.5784179"><ele>679.6</ele><time>2026-05-02T08:42:17.035Z</time></trkpt><trkpt lat="42.0509026" lon="13.5785168"><ele>680.0</ele><time>2026-05-02T08:42:18.039Z</time></trkpt><trkpt lat="42.0509904" lon="13.5786188"><ele>680.75</ele><time>2026-05-02T08:42:19.037Z</time></trkpt><trkpt lat="42.0510759" lon="13.5787258"><ele>681.5</ele><time>2026-05-02T08:42:20.048Z</time></trkpt><trkpt lat="42.0511527" lon="13.5788402"><ele>682.25</ele><time>2026-05-02T08:42:21.033Z</time></trkpt><trkpt lat="42.0512285" lon="13.5789491"><ele>683.0</ele><time>2026-05-02T08:42:22.034Z</time></trkpt><trkpt lat="42.0513054" lon="13.579054"><ele>683.0</ele><time>2026-05-02T08:42:23.043Z</time></trkpt><trkpt lat="42.0513817" lon="13.5791539"><ele>683.0</ele><time>2026-05-02T08:42:24.032Z</time></trkpt><trkpt lat="42.0514548" lon="13.5792396"><ele>683.0</ele><time>2026-05-02T08:42:25.037Z</time></trkpt><trkpt lat="42.0515343" lon="13.5793183"><ele>683.0</ele><time>2026-05-02T08:42:26.036Z</time></trkpt><trkpt lat="42.051614" lon="13.5793867"><ele>683.0</ele><time>2026-05-02T08:42:27.05Z</time></trkpt><trkpt lat="42.0516925" lon="13.5794483"><ele>683.4</ele><time>2026-05-02T08:42:28.029Z</time></trkpt><trkpt lat="42.0517708" lon="13.5795134"><ele>683.8</ele><time>2026-05-02T08:42:29.027Z</time></trkpt><trkpt lat="42.0518533" lon="13.5795724"><ele>684.2</ele><time>2026-05-02T08:42:30.039Z</time></trkpt><trkpt lat="42.0519395" lon="13.5796279"><ele>684.6</ele><time>2026-05-02T08:42:31.036Z</time></trkpt><trkpt lat="42.0520303" lon="13.5796828"><ele>685.0</ele><time>2026-05-02T08:42:32.055Z</time></trkpt><trkpt lat="42.0521196" lon="13.579735"><ele>685.0</ele><time>2026-05-02T08:42:33.041Z</time></trkpt><trkpt lat="42.0522169" lon="13.5797665"><ele>685.0</ele><time>2026-05-02T08:42:34.034Z</time></trkpt><trkpt lat="42.0523157" lon="13.5797742"><ele>685.0</ele><time>2026-05-02T08:42:35.041Z</time></trkpt><trkpt lat="42.052417" lon="13.5797635"><ele>685.0</ele><time>2026-05-02T08:42:36.041Z</time></trkpt><trkpt lat="42.052519" lon="13.5797313"><ele>685.0</ele><time>2026-05-02T08:42:37.038Z</time></trkpt><trkpt lat="42.052613" lon="13.5796865"><ele>684.8</ele><time>2026-05-02T08:42:38.026Z</time></trkpt><trkpt lat="42.052707" lon="13.5796399"><ele>684.6</ele><time>2026-05-02T08:42:39.043Z</time></trkpt><trkpt lat="42.0528055" lon="13.5795895"><ele>684.4000000000001</ele><time>2026-05-02T08:42:40.036Z</time></trkpt><trkpt lat="42.0529048" lon="13.5795524"><ele>684.2</ele><time>2026-05-02T08:42:41.063Z</time></trkpt><trkpt lat="42.0530035" lon="13.5795223"><ele>684.0</ele><time>2026-05-02T08:42:42.04Z</time></trkpt><trkpt lat="42.0531078" lon="13.5795116"><ele>684.6</ele><time>2026-05-02T08:42:43.041Z</time></trkpt><trkpt lat="42.053212" lon="13.5795207"><ele>685.2</ele><time>2026-05-02T08:42:44.043Z</time></trkpt><trkpt lat="42.0533204" lon="13.5795566"><ele>685.8000000000001</ele><time>2026-05-02T08:42:45.039Z</time></trkpt><trkpt lat="42.0534268" lon="13.5796163"><ele>686.4000000000001</ele><time>2026-05-02T08:42:46.043Z</time></trkpt><trkpt lat="42.0535255" lon="13.5796791"><ele>687.0</ele><time>2026-05-02T08:42:47.036Z</time></trkpt><trkpt lat="42.0536272" lon="13.5797398"><ele>687.25</ele><time>2026-05-02T08:42:48.053Z</time></trkpt><trkpt lat="42.0537341" lon="13.579796"><ele>687.5</ele><time>2026-05-02T08:42:49.036Z</time></trkpt><trkpt lat="42.0538474" lon="13.5798487"><ele>687.75</ele><time>2026-05-02T08:42:50.051Z</time></trkpt><trkpt lat="42.0539575" lon="13.5799045"><ele>688.0</ele><time>2026-05-02T08:42:51.04Z</time></trkpt><trkpt lat="42.054066" lon="13.5799596"><ele>688.0</ele><time>2026-05-02T08:42:52.031Z</time></trkpt><trkpt lat="42.0541756" lon="13.5800073"><ele>688.0</ele><time>2026-05-02T08:42:53.037Z</time></trkpt><trkpt lat="42.0542816" lon="13.5800516"><ele>688.0</ele><time>2026-05-02T08:42:54.034Z</time></trkpt><trkpt lat="42.0543862" lon="13.5800917"><ele>688.0</ele><time>2026-05-02T08:42:55.062Z</time></trkpt><trkpt lat="42.0544844" lon="13.5801304"><ele>688.0</ele><time>2026-05-02T08:42:56.04Z</time></trkpt><trkpt lat="42.0545774" lon="13.5801717"><ele>688.0</ele><time>2026-05-02T08:42:57.037Z</time></trkpt><trkpt lat="42.0546667" lon="13.5802107"><ele>688.0</ele><time>2026-05-02T08:42:58.04Z</time></trkpt><trkpt lat="42.0547531" lon="13.580256"><ele>688.0</ele><time>2026-05-02T08:42:59.038Z</time></trkpt><trkpt lat="42.0548355" lon="13.5803057"><ele>688.0</ele><time>2026-05-02T08:43:00.042Z</time></trkpt><trkpt lat="42.0549107" lon="13.5803586"><ele>688.0</ele><time>2026-05-02T08:43:01.033Z</time></trkpt><trkpt lat="42.0549789" lon="13.5804037"><ele>688.0</ele><time>2026-05-02T08:43:02.052Z</time></trkpt><trkpt lat="42.0550455" lon="13.5804487"><ele>687.8333333333334</ele><time>2026-05-02T08:43:03.042Z</time></trkpt><trkpt lat="42.0551183" lon="13.5804898"><ele>687.6666666666667</ele><time>2026-05-02T08:43:04.037Z</time></trkpt><trkpt lat="42.0551917" lon="13.5805313"><ele>687.5</ele><time>2026-05-02T08:43:05.041Z</time></trkpt><trkpt lat="42.0552714" lon="13.5805791"><ele>687.3333333333334</ele><time>2026-05-02T08:43:06.033Z</time></trkpt><trkpt lat="42.0553435" lon="13.580638"><ele>687.1666666666666</ele><time>2026-05-02T08:43:07.06Z</time></trkpt><trkpt lat="42.0554167" lon="13.5806974"><ele>687.0</ele><time>2026-05-02T08:43:08.035Z</time></trkpt><trkpt lat="42.0554976" lon="13.5807551"><ele>687.0</ele><time>2026-05-02T08:43:09.036Z</time></trkpt><trkpt lat="42.0555673" lon="13.5808064"><ele>687.0</ele><time>2026-05-02T08:43:10.035Z</time></trkpt><trkpt lat="42.0556341" lon="13.5808638"><ele>687.0</ele><time>2026-05-02T08:43:11.039Z</time></trkpt><trkpt lat="42.0556961" lon="13.5809219"><ele>687.0</ele><time>2026-05-02T08:43:12.033Z</time></trkpt><trkpt lat="42.0557563" lon="13.5809962"><ele>687.0</ele><time>2026-05-02T08:43:13.034Z</time></trkpt><trkpt lat="42.055804" lon="13.5810706"><ele>687.0</ele><time>2026-05-02T08:43:14.057Z</time></trkpt><trkpt lat="42.0558427" lon="13.5811514"><ele>688.0</ele><time>2026-05-02T08:43:15.037Z</time></trkpt><trkpt lat="42.0558666" lon="13.5812368"><ele>689.0</ele><time>2026-05-02T08:43:16.03Z</time></trkpt><trkpt lat="42.0558895" lon="13.5813203"><ele>690.0</ele><time>2026-05-02T08:43:17.046Z</time></trkpt><trkpt lat="42.0559462" lon="13.5814546"><ele>691.0</ele><time>2026-05-02T08:43:19.052Z</time></trkpt><trkpt lat="42.0560576" lon="13.5815297"><ele>692.0</ele><time>2026-05-02T08:43:21.033Z</time></trkpt><trkpt lat="42.0561337" lon="13.58152"><ele>692.0</ele><time>2026-05-02T08:43:22.033Z</time></trkpt><trkpt lat="42.0561977" lon="13.5814762"><ele>692.0</ele><time>2026-05-02T08:43:23.043Z</time></trkpt><trkpt lat="42.0562658" lon="13.5814038"><ele>692.0</ele><time>2026-05-02T08:43:24.031Z</time></trkpt><trkpt lat="42.0563063" lon="13.5813025"><ele>692.0</ele><time>2026-05-02T08:43:25.035Z</time></trkpt><trkpt lat="42.0563171" lon="13.5811815"><ele>692.0</ele><time>2026-05-02T08:43:26.034Z</time></trkpt><trkpt lat="42.0563088" lon="13.5810525"><ele>692.0</ele><time>2026-05-02T08:43:27.038Z</time></trkpt><trkpt lat="42.0563112" lon="13.5809175"><ele>691.4000000000001</ele><time>2026-05-02T08:43:28.032Z</time></trkpt><trkpt lat="42.0563269" lon="13.5807893"><ele>690.8000000000001</ele><time>2026-05-02T08:43:29.044Z</time></trkpt><trkpt lat="42.0563707" lon="13.5806591"><ele>690.2</ele><time>2026-05-02T08:43:30.032Z</time></trkpt><trkpt lat="42.0564321" lon="13.5805287"><ele>689.6</ele><time>2026-05-02T08:43:31.043Z</time></trkpt><trkpt lat="42.0564956" lon="13.5804119"><ele>689.0</ele><time>2026-05-02T08:43:32.031Z</time></trkpt><trkpt lat="42.0565608" lon="13.5802894"><ele>689.5</ele><time>2026-05-02T08:43:33.04Z</time></trkpt><trkpt lat="42.0566242" lon="13.5801649"><ele>690.0</ele><time>2026-05-02T08:43:34.032Z</time></trkpt><trkpt lat="42.0566856" lon="13.5800308"><ele>690.5</ele><time>2026-05-02T08:43:35.042Z</time></trkpt><trkpt lat="42.0567411" lon="13.5798902"><ele>691.0</ele><time>2026-05-02T08:43:36.053Z</time></trkpt><trkpt lat="42.0567935" lon="13.5797414"><ele>691.0</ele><time>2026-05-02T08:43:37.031Z</time></trkpt><trkpt lat="42.0568348" lon="13.5795875"><ele>691.0</ele><time>2026-05-02T08:43:38.03Z</time></trkpt><trkpt lat="42.0568619" lon="13.5794202"><ele>691.0</ele><time>2026-05-02T08:43:39.04Z</time></trkpt><trkpt lat="42.0568839" lon="13.5792534"><ele>691.0</ele><time>2026-05-02T08:43:40.035Z</time></trkpt><trkpt lat="42.0568984" lon="13.5790823"><ele>690.5</ele><time>2026-05-02T08:43:41.062Z</time></trkpt><trkpt lat="42.0569109" lon="13.5789096"><ele>690.0</ele><time>2026-05-02T08:43:42.034Z</time></trkpt><trkpt lat="42.0569257" lon="13.5787346"><ele>689.5</ele><time>2026-05-02T08:43:43.031Z</time></trkpt><trkpt lat="42.0569353" lon="13.5785546"><ele>689.0</ele><time>2026-05-02T08:43:44.03Z</time></trkpt><trkpt lat="42.0569487" lon="13.5783754"><ele>688.5</ele><time>2026-05-02T08:43:45.038Z</time></trkpt><trkpt lat="42.0569591" lon="13.5781956"><ele>688.0</ele><time>2026-05-02T08:43:46.035Z</time></trkpt><trkpt lat="42.056971" lon="13.5780138"><ele>687.5</ele><time>2026-05-02T08:43:47.037Z</time></trkpt><trkpt lat="42.0569825" lon="13.5778356"><ele>687.0</ele><time>2026-05-02T08:43:48.053Z</time></trkpt><trkpt lat="42.0569925" lon="13.577654"><ele>687.0</ele><time>2026-05-02T08:43:49.038Z</time></trkpt><trkpt lat="42.0569997" lon="13.5774685"><ele>687.0</ele><time>2026-05-02T08:43:50.033Z</time></trkpt><trkpt lat="42.0570108" lon="13.5772809"><ele>687.0</ele><time>2026-05-02T08:43:51.038Z</time></trkpt><trkpt lat="42.0570201" lon="13.5770834"><ele>687.0</ele><time>2026-05-02T08:43:52.038Z</time></trkpt><trkpt lat="42.0570326" lon="13.5768928"><ele>687.0</ele><time>2026-05-02T08:43:53.034Z</time></trkpt><trkpt lat="42.0570449" lon="13.5767007"><ele>687.0</ele><time>2026-05-02T08:43:54.03Z</time></trkpt><trkpt lat="42.0570546" lon="13.5765028"><ele>687.0</ele><time>2026-05-02T08:43:55.032Z</time></trkpt><trkpt lat="42.0570653" lon="13.5763124"><ele>687.0</ele><time>2026-05-02T08:43:56.057Z</time></trkpt><trkpt lat="42.0570757" lon="13.5761242"><ele>687.0</ele><time>2026-05-02T08:43:57.035Z</time></trkpt><trkpt lat="42.0570856" lon="13.5759299"><ele>687.0</ele><time>2026-05-02T08:43:58.03Z</time></trkpt><trkpt lat="42.0570968" lon="13.575735"><ele>687.0</ele><time>2026-05-02T08:43:59.037Z</time></trkpt><trkpt lat="42.057108" lon="13.5755383"><ele>687.0</ele><time>2026-05-02T08:44:00.038Z</time></trkpt><trkpt lat="42.0571255" lon="13.5753449"><ele>687.0</ele><time>2026-05-02T08:44:01.037Z</time></trkpt><trkpt lat="42.0571398" lon="13.5751484"><ele>687.0</ele><time>2026-05-02T08:44:02.048Z</time></trkpt><trkpt lat="42.0571494" lon="13.5749469"><ele>687.0</ele><time>2026-05-02T08:44:03.038Z</time></trkpt><trkpt lat="42.0571629" lon="13.5747452"><ele>687.0</ele><time>2026-05-02T08:44:04.037Z</time></trkpt><trkpt lat="42.0571779" lon="13.5745462"><ele>687.25</ele><time>2026-05-02T08:44:05.033Z</time></trkpt><trkpt lat="42.0571908" lon="13.5743427"><ele>687.5</ele><time>2026-05-02T08:44:06.038Z</time></trkpt><trkpt lat="42.0572049" lon="13.5741426"><ele>687.75</ele><time>2026-05-02T08:44:07.037Z</time></trkpt><trkpt lat="42.0572147" lon="13.5739442"><ele>688.0</ele><time>2026-05-02T08:44:08.045Z</time></trkpt><trkpt lat="42.057225" lon="13.5737408"><ele>687.75</ele><time>2026-05-02T08:44:09.033Z</time></trkpt><trkpt lat="42.0572356" lon="13.5735457"><ele>687.5</ele><time>2026-05-02T08:44:10.037Z</time></trkpt><trkpt lat="42.057244" lon="13.5733481"><ele>687.25</ele><time>2026-05-02T08:44:11.038Z</time></trkpt><trkpt lat="42.0572488" lon="13.5731482"><ele>687.0</ele><time>2026-05-02T08:44:12.035Z</time></trkpt><trkpt lat="42.0572589" lon="13.5729498"><ele>685.6666666666666</ele><time>2026-05-02T08:44:13.034Z</time></trkpt><trkpt lat="42.057272" lon="13.5727461"><ele>684.3333333333333</ele><time>2026-05-02T08:44:14.042Z</time></trkpt><trkpt lat="42.0572872" lon="13.572541"><ele>683.0</ele><time>2026-05-02T08:44:15.037Z</time></trkpt><trkpt lat="42.0573" lon="13.572334"><ele>683.0</ele><time>2026-05-02T08:44:16.028Z</time></trkpt><trkpt lat="42.0573131" lon="13.5721287"><ele>683.0</ele><time>2026-05-02T08:44:17.039Z</time></trkpt><trkpt lat="42.057328" lon="13.571923"><ele>683.0</ele><time>2026-05-02T08:44:18.035Z</time></trkpt><trkpt lat="42.0573414" lon="13.5717179"><ele>682.6666666666666</ele><time>2026-05-02T08:44:19.032Z</time></trkpt><trkpt lat="42.0573568" lon="13.5715041"><ele>682.3333333333334</ele><time>2026-05-02T08:44:20.033Z</time></trkpt><trkpt lat="42.0573717" lon="13.5712946"><ele>682.0</ele><time>2026-05-02T08:44:21.041Z</time></trkpt><trkpt lat="42.0573864" lon="13.571086"><ele>682.6666666666667</ele><time>2026-05-02T08:44:22.066Z</time></trkpt><trkpt lat="42.0573945" lon="13.5708751"><ele>683.3333333333334</ele><time>2026-05-02T08:44:23.039Z</time></trkpt><trkpt lat="42.0574032" lon="13.5706651"><ele>684.0</ele><time>2026-05-02T08:44:24.038Z</time></trkpt><trkpt lat="42.0574136" lon="13.5704555"><ele>684.3333333333334</ele><time>2026-05-02T08:44:25.04Z</time></trkpt><trkpt lat="42.0574237" lon="13.5702457"><ele>684.6666666666667</ele><time>2026-05-02T08:44:26.035Z</time></trkpt><trkpt lat="42.0574334" lon="13.5700288"><ele>685.0</ele><time>2026-05-02T08:44:27.041Z</time></trkpt><trkpt lat="42.0574445" lon="13.5698173"><ele>685.0</ele><time>2026-05-02T08:44:28.028Z</time></trkpt><trkpt lat="42.057457" lon="13.5696055"><ele>685.0</ele><time>2026-05-02T08:44:29.023Z</time></trkpt><trkpt lat="42.0574675" lon="13.5693919"><ele>685.0</ele><time>2026-05-02T08:44:30.049Z</time></trkpt><trkpt lat="42.0574795" lon="13.5691731"><ele>686.0</ele><time>2026-05-02T08:44:31.053Z</time></trkpt><trkpt lat="42.0574919" lon="13.5689561"><ele>687.0</ele><time>2026-05-02T08:44:32.043Z</time></trkpt><trkpt lat="42.0575056" lon="13.5687384"><ele>688.0</ele><time>2026-05-02T08:44:33.052Z</time></trkpt><trkpt lat="42.0575209" lon="13.5685259"><ele>688.0</ele><time>2026-05-02T08:44:34.044Z</time></trkpt><trkpt lat="42.0575343" lon="13.5683336"><ele>688.0</ele><time>2026-05-02T08:44:35.037Z</time></trkpt><trkpt lat="42.0575461" lon="13.5681558"><ele>688.0</ele><time>2026-05-02T08:44:36.043Z</time></trkpt><trkpt lat="42.0575595" lon="13.5679862"><ele>688.0</ele><time>2026-05-02T08:44:37.034Z</time></trkpt><trkpt lat="42.057575" lon="13.5678252"><ele>688.2</ele><time>2026-05-02T08:44:38.041Z</time></trkpt><trkpt lat="42.057602" lon="13.5676734"><ele>688.4</ele><time>2026-05-02T08:44:39.039Z</time></trkpt><trkpt lat="42.0576379" lon="13.5675398"><ele>688.6</ele><time>2026-05-02T08:44:40.035Z</time></trkpt><trkpt lat="42.0576781" lon="13.5674223"><ele>688.8000000000001</ele><time>2026-05-02T08:44:41.039Z</time></trkpt><trkpt lat="42.05773" lon="13.567318"><ele>689.0</ele><time>2026-05-02T08:44:42.053Z</time></trkpt><trkpt lat="42.057775" lon="13.5672262"><ele>689.0</ele><time>2026-05-02T08:44:43.026Z</time></trkpt><trkpt lat="42.0578018" lon="13.5671336"><ele>689.0</ele><time>2026-05-02T08:44:44.042Z</time></trkpt><trkpt lat="42.057804" lon="13.5670418"><ele>689.0</ele><time>2026-05-02T08:44:45.046Z</time></trkpt><trkpt lat="42.0577691" lon="13.5669435"><ele>689.0</ele><time>2026-05-02T08:44:46.035Z</time></trkpt><trkpt lat="42.0577204" lon="13.5668528"><ele>689.0</ele><time>2026-05-02T08:44:47.039Z</time></trkpt><trkpt lat="42.0576845" lon="13.5667497"><ele>689.0</ele><time>2026-05-02T08:44:48.042Z</time></trkpt><trkpt lat="42.0576678" lon="13.5666212"><ele>689.0</ele><time>2026-05-02T08:44:49.049Z</time></trkpt><trkpt lat="42.0576647" lon="13.5664748"><ele>689.0</ele><time>2026-05-02T08:44:50.066Z</time></trkpt><trkpt lat="42.0576642" lon="13.5663321"><ele>689.0</ele><time>2026-05-02T08:44:51.038Z</time></trkpt><trkpt lat="42.0576679" lon="13.5661786"><ele>689.0</ele><time>2026-05-02T08:44:52.031Z</time></trkpt><trkpt lat="42.0576735" lon="13.5660232"><ele>689.0</ele><time>2026-05-02T08:44:53.046Z</time></trkpt><trkpt lat="42.0576786" lon="13.5658591"><ele>689.0</ele><time>2026-05-02T08:44:54.041Z</time></trkpt><trkpt lat="42.0576858" lon="13.5656905"><ele>689.0</ele><time>2026-05-02T08:44:55.035Z</time></trkpt><trkpt lat="42.0576919" lon="13.5655184"><ele>689.0</ele><time>2026-05-02T08:44:56.047Z</time></trkpt><trkpt lat="42.0577007" lon="13.5653403"><ele>689.0</ele><time>2026-05-02T08:44:57.039Z</time></trkpt><trkpt lat="42.0577093" lon="13.5651604"><ele>689.25</ele><time>2026-05-02T08:44:58.045Z</time></trkpt><trkpt lat="42.0577206" lon="13.5649796"><ele>689.5</ele><time>2026-05-02T08:44:59.045Z</time></trkpt><trkpt lat="42.0577315" lon="13.5647867"><ele>689.75</ele><time>2026-05-02T08:45:00.034Z</time></trkpt><trkpt lat="42.0577448" lon="13.5645981"><ele>690.0</ele><time>2026-05-02T08:45:01.036Z</time></trkpt><trkpt lat="42.05776" lon="13.5644088"><ele>690.5</ele><time>2026-05-02T08:45:02.032Z</time></trkpt><trkpt lat="42.0577743" lon="13.5642204"><ele>691.0</ele><time>2026-05-02T08:45:03.044Z</time></trkpt><trkpt lat="42.0577876" lon="13.5640189"><ele>691.5</ele><time>2026-05-02T08:45:04.038Z</time></trkpt><trkpt lat="42.0577976" lon="13.5638098"><ele>692.0</ele><time>2026-05-02T08:45:05.072Z</time></trkpt><trkpt lat="42.0578069" lon="13.5636031"><ele>692.0</ele><time>2026-05-02T08:45:06.031Z</time></trkpt><trkpt lat="42.0578194" lon="13.5633879"><ele>692.0</ele><time>2026-05-02T08:45:07.04Z</time></trkpt><trkpt lat="42.0578325" lon="13.5631612"><ele>692.0</ele><time>2026-05-02T08:45:08.038Z</time></trkpt><trkpt lat="42.0578465" lon="13.562882"><ele>692.5</ele><time>2026-05-02T08:45:09.045Z</time></trkpt><trkpt lat="42.0578694" lon="13.5625605"><ele>693.0</ele><time>2026-05-02T08:45:10.031Z</time></trkpt><trkpt lat="42.0578871" lon="13.5622106"><ele>693.5</ele><time>2026-05-02T08:45:11.04Z</time></trkpt><trkpt lat="42.0579052" lon="13.561856"><ele>694.0</ele><time>2026-05-02T08:45:12.037Z</time></trkpt><trkpt lat="42.0579263" lon="13.5615276"><ele>694.0</ele><time>2026-05-02T08:45:13.041Z</time></trkpt><trkpt lat="42.0579375" lon="13.561223"><ele>694.0</ele><time>2026-05-02T08:45:14.039Z</time></trkpt><trkpt lat="42.0579532" lon="13.5609307"><ele>694.0</ele><time>2026-05-02T08:45:15.031Z</time></trkpt><trkpt lat="42.0579797" lon="13.5606582"><ele>693.6666666666667</ele><time>2026-05-02T08:45:16.038Z</time></trkpt><trkpt lat="42.0580031" lon="13.5604089"><ele>693.3333333333334</ele><time>2026-05-02T08:45:17.033Z</time></trkpt><trkpt lat="42.058039" lon="13.5601781"><ele>693.0</ele><time>2026-05-02T08:45:18.047Z</time></trkpt><trkpt lat="42.0580783" lon="13.5599802"><ele>693.0</ele><time>2026-05-02T08:45:19.035Z</time></trkpt><trkpt lat="42.0581176" lon="13.5598135"><ele>693.0</ele><time>2026-05-02T08:45:20.04Z</time></trkpt><trkpt lat="42.058171" lon="13.5596691"><ele>693.0</ele><time>2026-05-02T08:45:21.031Z</time></trkpt><trkpt lat="42.0582508" lon="13.5595656"><ele>693.0</ele><time>2026-05-02T08:45:22.025Z</time></trkpt><trkpt lat="42.0583342" lon="13.5594772"><ele>693.0</ele><time>2026-05-02T08:45:23.038Z</time></trkpt><trkpt lat="42.0583912" lon="13.5593669"><ele>693.0</ele><time>2026-05-02T08:45:24.033Z</time></trkpt><trkpt lat="42.058422" lon="13.559246"><ele>693.0</ele><time>2026-05-02T08:45:25.037Z</time></trkpt><trkpt lat="42.0584294" lon="13.559127"><ele>693.0</ele><time>2026-05-02T08:45:26.028Z</time></trkpt><trkpt lat="42.0584465" lon="13.5590017"><ele>693.0</ele><time>2026-05-02T08:45:27.034Z</time></trkpt><trkpt lat="42.0584779" lon="13.5588702"><ele>693.0</ele><time>2026-05-02T08:45:28.034Z</time></trkpt><trkpt lat="42.0585464" lon="13.5587549"><ele>693.0</ele><time>2026-05-02T08:45:29.036Z</time></trkpt><trkpt lat="42.0586406" lon="13.558647"><ele>693.0</ele><time>2026-05-02T08:45:30.055Z</time></trkpt><trkpt lat="42.0587515" lon="13.5585605"><ele>693.0</ele><time>2026-05-02T08:45:31.034Z</time></trkpt><trkpt lat="42.0588673" lon="13.5584879"><ele>693.3333333333334</ele><time>2026-05-02T08:45:32.038Z</time></trkpt><trkpt lat="42.0589868" lon="13.5584153"><ele>693.6666666666667</ele><time>2026-05-02T08:45:33.044Z</time></trkpt><trkpt lat="42.0591224" lon="13.5583163"><ele>694.0</ele><time>2026-05-02T08:45:34.036Z</time></trkpt><trkpt lat="42.0592695" lon="13.5581972"><ele>694.0</ele><time>2026-05-02T08:45:35.029Z</time></trkpt><trkpt lat="42.0594487" lon="13.5580621"><ele>694.0</ele><time>2026-05-02T08:45:36.032Z</time></trkpt><trkpt lat="42.0596553" lon="13.5579216"><ele>694.0</ele><time>2026-05-02T08:45:37.04Z</time></trkpt><trkpt lat="42.0598818" lon="13.5577717"><ele>694.0</ele><time>2026-05-02T08:45:38.037Z</time></trkpt><trkpt lat="42.0601198" lon="13.5576052"><ele>694.0</ele><time>2026-05-02T08:45:39.044Z</time></trkpt><trkpt lat="42.0603723" lon="13.5574395"><ele>694.0</ele><time>2026-05-02T08:45:40.031Z</time></trkpt><trkpt lat="42.0606386" lon="13.5572899"><ele>694.0</ele><time>2026-05-02T08:45:41.057Z</time></trkpt><trkpt lat="42.0608911" lon="13.5571452"><ele>696.0</ele><time>2026-05-02T08:45:42.03Z</time></trkpt><trkpt lat="42.0611341" lon="13.5569983"><ele>698.0</ele><time>2026-05-02T08:45:43.042Z</time></trkpt><trkpt lat="42.0613709" lon="13.556837"><ele>698.0</ele><time>2026-05-02T08:45:44.036Z</time></trkpt><trkpt lat="42.0616084" lon="13.5566661"><ele>698.0</ele><time>2026-05-02T08:45:45.036Z</time></trkpt><trkpt lat="42.0618365" lon="13.5565072"><ele>698.0</ele><time>2026-05-02T08:45:46.047Z</time></trkpt><trkpt lat="42.0620595" lon="13.5563496"><ele>698.0</ele><time>2026-05-02T08:45:47.02Z</time></trkpt><trkpt lat="42.062276" lon="13.5561968"><ele>699.5</ele><time>2026-05-02T08:45:48.041Z</time></trkpt><trkpt lat="42.0624902" lon="13.5560483"><ele>701.0</ele><time>2026-05-02T08:45:49.033Z</time></trkpt><trkpt lat="42.0626956" lon="13.5559028"><ele>701.0</ele><time>2026-05-02T08:45:50.044Z</time></trkpt><trkpt lat="42.0629023" lon="13.5557636"><ele>701.0</ele><time>2026-05-02T08:45:51.038Z</time></trkpt><trkpt lat="42.0631038" lon="13.5556295"><ele>701.5</ele><time>2026-05-02T08:45:52.042Z</time></trkpt><trkpt lat="42.0633069" lon="13.5554957"><ele>702.0</ele><time>2026-05-02T08:45:53.04Z</time></trkpt><trkpt lat="42.0635131" lon="13.5553721"><ele>702.0</ele><time>2026-05-02T08:45:54.038Z</time></trkpt><trkpt lat="42.0637121" lon="13.5552617"><ele>702.0</ele><time>2026-05-02T08:45:55.04Z</time></trkpt><trkpt lat="42.0639225" lon="13.5551649"><ele>702.0</ele><time>2026-05-02T08:45:56.036Z</time></trkpt><trkpt lat="42.0641329" lon="13.5550741"><ele>702.0</ele><time>2026-05-02T08:45:57.036Z</time></trkpt><trkpt lat="42.0643293" lon="13.5549928"><ele>702.0</ele><time>2026-05-02T08:45:58.048Z</time></trkpt><trkpt lat="42.064526" lon="13.5549318"><ele>702.0</ele><time>2026-05-02T08:45:59.039Z</time></trkpt><trkpt lat="42.0647176" lon="13.5548719"><ele>702.0</ele><time>2026-05-02T08:46:00.061Z</time></trkpt><trkpt lat="42.0649016" lon="13.5548152"><ele>702.0</ele><time>2026-05-02T08:46:01.035Z</time></trkpt><trkpt lat="42.0650787" lon="13.5547586"><ele>702.0</ele><time>2026-05-02T08:46:02.043Z</time></trkpt><trkpt lat="42.0652451" lon="13.5547002"><ele>703.6666666666666</ele><time>2026-05-02T08:46:03.042Z</time></trkpt><trkpt lat="42.0654068" lon="13.5546453"><ele>705.3333333333333</ele><time>2026-05-02T08:46:04.034Z</time></trkpt><trkpt lat="42.0655704" lon="13.5545859"><ele>707.0</ele><time>2026-05-02T08:46:05.043Z</time></trkpt><trkpt lat="42.0657337" lon="13.5545314"><ele>707.6666666666666</ele><time>2026-05-02T08:46:06.026Z</time></trkpt><trkpt lat="42.065894" lon="13.5544826"><ele>708.3333333333334</ele><time>2026-05-02T08:46:07.048Z</time></trkpt><trkpt lat="42.0660559" lon="13.5544343"><ele>709.0</ele><time>2026-05-02T08:46:08.034Z</time></trkpt><trkpt lat="42.0662214" lon="13.5543848"><ele>709.0</ele><time>2026-05-02T08:46:09.04Z</time></trkpt><trkpt lat="42.0663803" lon="13.5543362"><ele>709.0</ele><time>2026-05-02T08:46:10.036Z</time></trkpt><trkpt lat="42.0665394" lon="13.5542956"><ele>709.0</ele><time>2026-05-02T08:46:11.039Z</time></trkpt><trkpt lat="42.066699" lon="13.5542561"><ele>710.0</ele><time>2026-05-02T08:46:12.038Z</time></trkpt><trkpt lat="42.0668575" lon="13.554232"><ele>711.0</ele><time>2026-05-02T08:46:13.034Z</time></trkpt><trkpt lat="42.0670188" lon="13.554233"><ele>712.0</ele><time>2026-05-02T08:46:14.032Z</time></trkpt><trkpt lat="42.0671838" lon="13.5542548"><ele>712.0</ele><time>2026-05-02T08:46:15.033Z</time></trkpt><trkpt lat="42.0673426" lon="13.5542929"><ele>712.0</ele><time>2026-05-02T08:46:16.033Z</time></trkpt><trkpt lat="42.0674931" lon="13.5543493"><ele>712.0</ele><time>2026-05-02T08:46:17.039Z</time></trkpt><trkpt lat="42.0676398" lon="13.5544201"><ele>712.6666666666667</ele><time>2026-05-02T08:46:18.039Z</time></trkpt><trkpt lat="42.0677867" lon="13.5544984"><ele>713.3333333333334</ele><time>2026-05-02T08:46:19.025Z</time></trkpt><trkpt lat="42.0679319" lon="13.554584"><ele>714.0</ele><time>2026-05-02T08:46:20.026Z</time></trkpt><trkpt lat="42.0680831" lon="13.5546691"><ele>714.0</ele><time>2026-05-02T08:46:21.031Z</time></trkpt><trkpt lat="42.0682288" lon="13.5547386"><ele>714.0</ele><time>2026-05-02T08:46:22.04Z</time></trkpt><trkpt lat="42.0683638" lon="13.5547867"><ele>714.0</ele><time>2026-05-02T08:46:23.036Z</time></trkpt><trkpt lat="42.0685143" lon="13.5547874"><ele>714.0</ele><time>2026-05-02T08:46:24.036Z</time></trkpt><trkpt lat="42.0686734" lon="13.5547258"><ele>714.6666666666666</ele><time>2026-05-02T08:46:25.036Z</time></trkpt><trkpt lat="42.0688374" lon="13.5546211"><ele>715.3333333333333</ele><time>2026-05-02T08:46:26.022Z</time></trkpt><trkpt lat="42.0689653" lon="13.5544953"><ele>716.0</ele><time>2026-05-02T08:46:27.037Z</time></trkpt><trkpt lat="42.0690808" lon="13.5543536"><ele>718.0</ele><time>2026-05-02T08:46:28.027Z</time></trkpt><trkpt lat="42.0691997" lon="13.5542222"><ele>720.0</ele><time>2026-05-02T08:46:29.032Z</time></trkpt><trkpt lat="42.0693278" lon="13.5540828"><ele>722.0</ele><time>2026-05-02T08:46:30.029Z</time></trkpt><trkpt lat="42.0694581" lon="13.5539538"><ele>722.0</ele><time>2026-05-02T08:46:31.056Z</time></trkpt><trkpt lat="42.0695823" lon="13.5538241"><ele>722.0</ele><time>2026-05-02T08:46:32.028Z</time></trkpt><trkpt lat="42.0697082" lon="13.5537025"><ele>722.0</ele><time>2026-05-02T08:46:33.034Z</time></trkpt><trkpt lat="42.0698452" lon="13.5535949"><ele>722.0</ele><time>2026-05-02T08:46:34.031Z</time></trkpt><trkpt lat="42.0699995" lon="13.5535219"><ele>722.0</ele><time>2026-05-02T08:46:35.033Z</time></trkpt><trkpt lat="42.0701559" lon="13.55348"><ele>722.0</ele><time>2026-05-02T08:46:36.029Z</time></trkpt><trkpt lat="42.0703075" lon="13.5534363"><ele>722.0</ele><time>2026-05-02T08:46:37.035Z</time></trkpt><trkpt lat="42.0704492" lon="13.5534011"><ele>722.0</ele><time>2026-05-02T08:46:38.044Z</time></trkpt><trkpt lat="42.0705996" lon="13.553352"><ele>722.0</ele><time>2026-05-02T08:46:39.032Z</time></trkpt><trkpt lat="42.0707432" lon="13.5533091"><ele>722.0</ele><time>2026-05-02T08:46:40.032Z</time></trkpt><trkpt lat="42.070869" lon="13.5532685"><ele>724.0</ele><time>2026-05-02T08:46:41.041Z</time></trkpt><trkpt lat="42.0709889" lon="13.5532324"><ele>726.0</ele><time>2026-05-02T08:46:42.027Z</time></trkpt><trkpt lat="42.0711055" lon="13.5531934"><ele>728.0</ele><time>2026-05-02T08:46:43.033Z</time></trkpt><trkpt lat="42.0712199" lon="13.5531429"><ele>730.0</ele><time>2026-05-02T08:46:44.031Z</time></trkpt><trkpt lat="42.0713251" lon="13.55308"><ele>730.0</ele><time>2026-05-02T08:46:45.046Z</time></trkpt><trkpt lat="42.0714317" lon="13.5530025"><ele>730.0</ele><time>2026-05-02T08:46:46.024Z</time></trkpt><trkpt lat="42.0715288" lon="13.5529189"><ele>730.0</ele><time>2026-05-02T08:46:47.031Z</time></trkpt><trkpt lat="42.0716232" lon="13.552844"><ele>730.0</ele><time>2026-05-02T08:46:48.036Z</time></trkpt><trkpt lat="42.0717089" lon="13.5527686"><ele>730.0</ele><time>2026-05-02T08:46:49.03Z</time></trkpt><trkpt lat="42.0717988" lon="13.5527095"><ele>729.2</ele><time>2026-05-02T08:46:50.026Z</time></trkpt><trkpt lat="42.0718858" lon="13.5526652"><ele>728.4</ele><time>2026-05-02T08:46:51.023Z</time></trkpt><trkpt lat="42.0719617" lon="13.5526536"><ele>727.5999999999999</ele><time>2026-05-02T08:46:52.027Z</time></trkpt><trkpt lat="42.0720781" lon="13.5526783"><ele>726.8</ele><time>2026-05-02T08:46:54.034Z</time></trkpt><trkpt lat="42.0721451" lon="13.5527134"><ele>726.0</ele><time>2026-05-02T08:46:55.034Z</time></trkpt><trkpt lat="42.072234" lon="13.5527588"><ele>726.0</ele><time>2026-05-02T08:46:56.032Z</time></trkpt><trkpt lat="42.0723384" lon="13.5527981"><ele>726.0</ele><time>2026-05-02T08:46:57.02Z</time></trkpt><trkpt lat="42.0724681" lon="13.5527733"><ele>726.0</ele><time>2026-05-02T08:46:58.036Z</time></trkpt><trkpt lat="42.0725924" lon="13.5527168"><ele>726.0</ele><time>2026-05-02T08:46:59.039Z</time></trkpt><trkpt lat="42.0727302" lon="13.5526635"><ele>727.25</ele><time>2026-05-02T08:47:00.033Z</time></trkpt><trkpt lat="42.0728693" lon="13.552602"><ele>728.5</ele><time>2026-05-02T08:47:01.02Z</time></trkpt><trkpt lat="42.0730077" lon="13.5525417"><ele>729.75</ele><time>2026-05-02T08:47:02.032Z</time></trkpt><trkpt lat="42.0731428" lon="13.5524847"><ele>731.0</ele><time>2026-05-02T08:47:03.043Z</time></trkpt><trkpt lat="42.0732765" lon="13.5524209"><ele>732.75</ele><time>2026-05-02T08:47:04.031Z</time></trkpt><trkpt lat="42.0734157" lon="13.5523547"><ele>734.5</ele><time>2026-05-02T08:47:05.032Z</time></trkpt><trkpt lat="42.073554" lon="13.5523003"><ele>736.25</ele><time>2026-05-02T08:47:06.028Z</time></trkpt><trkpt lat="42.0737006" lon="13.552248"><ele>738.0</ele><time>2026-05-02T08:47:07.027Z</time></trkpt><trkpt lat="42.0738502" lon="13.552207"><ele>738.0</ele><time>2026-05-02T08:47:08.032Z</time></trkpt><trkpt lat="42.0740061" lon="13.5521848"><ele>738.0</ele><time>2026-05-02T08:47:09.042Z</time></trkpt><trkpt lat="42.0741628" lon="13.5521915"><ele>738.0</ele><time>2026-05-02T08:47:10.029Z</time></trkpt><trkpt lat="42.0743121" lon="13.5522116"><ele>739.5</ele><time>2026-05-02T08:47:11.035Z</time></trkpt><trkpt lat="42.074454" lon="13.5522447"><ele>741.0</ele><time>2026-05-02T08:47:12.04Z</time></trkpt><trkpt lat="42.0745858" lon="13.5522878"><ele>742.5</ele><time>2026-05-02T08:47:13.044Z</time></trkpt><trkpt lat="42.0747147" lon="13.5523357"><ele>744.0</ele><time>2026-05-02T08:47:14.021Z</time></trkpt><trkpt lat="42.0748342" lon="13.5523831"><ele>743.75</ele><time>2026-05-02T08:47:15.042Z</time></trkpt><trkpt lat="42.0749527" lon="13.5524326"><ele>743.5</ele><time>2026-05-02T08:47:16.034Z</time></trkpt><trkpt lat="42.0750683" lon="13.552486"><ele>743.25</ele><time>2026-05-02T08:47:17.036Z</time></trkpt><trkpt lat="42.0751811" lon="13.5525515"><ele>743.0</ele><time>2026-05-02T08:47:18.037Z</time></trkpt><trkpt lat="42.0752998" lon="13.5526252"><ele>743.0</ele><time>2026-05-02T08:47:19.033Z</time></trkpt><trkpt lat="42.0754328" lon="13.5527269"><ele>743.0</ele><time>2026-05-02T08:47:20.03Z</time></trkpt><trkpt lat="42.0755878" lon="13.5528591"><ele>743.0</ele><time>2026-05-02T08:47:21.048Z</time></trkpt><trkpt lat="42.0757492" lon="13.5530106"><ele>745.0</ele><time>2026-05-02T08:47:22.034Z</time></trkpt><trkpt lat="42.0758909" lon="13.553171"><ele>747.0</ele><time>2026-05-02T08:47:23.037Z</time></trkpt><trkpt lat="42.0760305" lon="13.5533215"><ele>749.0</ele><time>2026-05-02T08:47:24.031Z</time></trkpt><trkpt lat="42.0761662" lon="13.5534356"><ele>749.0</ele><time>2026-05-02T08:47:25.027Z</time></trkpt><trkpt lat="42.0763043" lon="13.5535208"><ele>749.0</ele><time>2026-05-02T08:47:26.037Z</time></trkpt><trkpt lat="42.0764672" lon="13.5535431"><ele>749.0</ele><time>2026-05-02T08:47:27.034Z</time></trkpt><trkpt lat="42.0766332" lon="13.5535269"><ele>747.6666666666666</ele><time>2026-05-02T08:47:28.029Z</time></trkpt><trkpt lat="42.0767912" lon="13.5534821"><ele>746.3333333333334</ele><time>2026-05-02T08:47:29.033Z</time></trkpt><trkpt lat="42.0769373" lon="13.5534256"><ele>745.0</ele><time>2026-05-02T08:47:30.029Z</time></trkpt><trkpt lat="42.0770765" lon="13.5533772"><ele>745.0</ele><time>2026-05-02T08:47:31.036Z</time></trkpt><trkpt lat="42.077214" lon="13.5533306"><ele>745.0</ele><time>2026-05-02T08:47:32.027Z</time></trkpt><trkpt lat="42.0773452" lon="13.5532791"><ele>745.0</ele><time>2026-05-02T08:47:33.039Z</time></trkpt><trkpt lat="42.0774651" lon="13.5532006"><ele>745.0</ele><time>2026-05-02T08:47:34.025Z</time></trkpt><trkpt lat="42.0775484" lon="13.5530842"><ele>745.5</ele><time>2026-05-02T08:47:35.036Z</time></trkpt><trkpt lat="42.0775924" lon="13.5529267"><ele>746.0</ele><time>2026-05-02T08:47:36.03Z</time></trkpt><trkpt lat="42.077584" lon="13.5527406"><ele>746.5</ele><time>2026-05-02T08:47:37.03Z</time></trkpt><trkpt lat="42.0775515" lon="13.5525567"><ele>747.0</ele><time>2026-05-02T08:47:38.028Z</time></trkpt><trkpt lat="42.0775043" lon="13.5523944"><ele>747.0</ele><time>2026-05-02T08:47:39.03Z</time></trkpt><trkpt lat="42.0774589" lon="13.5522374"><ele>747.0</ele><time>2026-05-02T08:47:40.032Z</time></trkpt><trkpt lat="42.0774164" lon="13.552079"><ele>747.0</ele><time>2026-05-02T08:47:41.043Z</time></trkpt><trkpt lat="42.0773812" lon="13.5519211"><ele>747.0</ele><time>2026-05-02T08:47:42.025Z</time></trkpt><trkpt lat="42.0773412" lon="13.5517698"><ele>747.0</ele><time>2026-05-02T08:47:43.032Z</time></trkpt><trkpt lat="42.0772945" lon="13.5516379"><ele>747.0</ele><time>2026-05-02T08:47:44.025Z</time></trkpt><trkpt lat="42.0772422" lon="13.5515265"><ele>747.0</ele><time>2026-05-02T08:47:45.031Z</time></trkpt><trkpt lat="42.0771845" lon="13.5514204"><ele>747.0</ele><time>2026-05-02T08:47:46.021Z</time></trkpt><trkpt lat="42.0771237" lon="13.551327"><ele>747.0</ele><time>2026-05-02T08:47:47.035Z</time></trkpt><trkpt lat="42.0770606" lon="13.5512437"><ele>748.3333333333334</ele><time>2026-05-02T08:47:48.025Z</time></trkpt><trkpt lat="42.0769938" lon="13.551177"><ele>749.6666666666666</ele><time>2026-05-02T08:47:49.037Z</time></trkpt><trkpt lat="42.0769228" lon="13.5511218"><ele>751.0</ele><time>2026-05-02T08:47:50.045Z</time></trkpt><trkpt lat="42.0768538" lon="13.5510746"><ele>752.3333333333333</ele><time>2026-05-02T08:47:51.028Z</time></trkpt><trkpt lat="42.0767853" lon="13.5510256"><ele>753.6666666666666</ele><time>2026-05-02T08:47:52.023Z</time></trkpt><trkpt lat="42.0767189" lon="13.5509742"><ele>755.0</ele><time>2026-05-02T08:47:53.034Z</time></trkpt><trkpt lat="42.0766294" lon="13.5508554"><ele>755.0</ele><time>2026-05-02T08:47:55.03Z</time></trkpt><trkpt lat="42.0765897" lon="13.550735"><ele>755.0</ele><time>2026-05-02T08:47:57.037Z</time></trkpt><trkpt lat="42.0766473" lon="13.5506678"><ele>755.0</ele><time>2026-05-02T08:47:59.064Z</time></trkpt><trkpt lat="42.0767632" lon="13.5506696"><ele>755.0</ele><time>2026-05-02T08:48:01.038Z</time></trkpt><trkpt lat="42.0768617" lon="13.5506673"><ele>755.0</ele><time>2026-05-02T08:48:02.026Z</time></trkpt><trkpt lat="42.0769708" lon="13.5506694"><ele>755.0</ele><time>2026-05-02T08:48:03.029Z</time></trkpt><trkpt lat="42.0771079" lon="13.5506008"><ele>755.0</ele><time>2026-05-02T08:48:04.026Z</time></trkpt><trkpt lat="42.0772418" lon="13.5505313"><ele>755.0</ele><time>2026-05-02T08:48:05.037Z</time></trkpt><trkpt lat="42.077405" lon="13.5504543"><ele>757.6666666666666</ele><time>2026-05-02T08:48:06.029Z</time></trkpt><trkpt lat="42.0775772" lon="13.5503758"><ele>760.3333333333334</ele><time>2026-05-02T08:48:07.039Z</time></trkpt><trkpt lat="42.0777609" lon="13.5502934"><ele>763.0</ele><time>2026-05-02T08:48:08.029Z</time></trkpt><trkpt lat="42.0779491" lon="13.5502096"><ele>763.0</ele><time>2026-05-02T08:48:09.031Z</time></trkpt><trkpt lat="42.0781306" lon="13.5501288"><ele>763.0</ele><time>2026-05-02T08:48:10.027Z</time></trkpt><trkpt lat="42.0783069" lon="13.5500485"><ele>763.0</ele><time>2026-05-02T08:48:11.035Z</time></trkpt><trkpt lat="42.0784712" lon="13.5499807"><ele>766.5</ele><time>2026-05-02T08:48:12.026Z</time></trkpt><trkpt lat="42.0786239" lon="13.5499189"><ele>770.0</ele><time>2026-05-02T08:48:13.028Z</time></trkpt><trkpt lat="42.0787617" lon="13.549861"><ele>773.5</ele><time>2026-05-02T08:48:14.035Z</time></trkpt><trkpt lat="42.0788976" lon="13.5498074"><ele>777.0</ele><time>2026-05-02T08:48:15.029Z</time></trkpt><trkpt lat="42.0790422" lon="13.5497486"><ele>780.25</ele><time>2026-05-02T08:48:16.044Z</time></trkpt><trkpt lat="42.0791798" lon="13.5496908"><ele>783.5</ele><time>2026-05-02T08:48:17.043Z</time></trkpt><trkpt lat="42.0792976" lon="13.549638"><ele>786.75</ele><time>2026-05-02T08:48:18.035Z</time></trkpt><trkpt lat="42.0793975" lon="13.5495945"><ele>790.0</ele><time>2026-05-02T08:48:19.031Z</time></trkpt><trkpt lat="42.0794804" lon="13.5495591"><ele>789.8333333333333</ele><time>2026-05-02T08:48:20.037Z</time></trkpt><trkpt lat="42.0795708" lon="13.5495185"><ele>789.6666666666666</ele><time>2026-05-02T08:48:22.041Z</time></trkpt><trkpt lat="42.0796399" lon="13.5494643"><ele>789.5</ele><time>2026-05-02T08:48:26.029Z</time></trkpt><trkpt lat="42.0797331" lon="13.5494169"><ele>789.3333333333333</ele><time>2026-05-02T08:48:29.033Z</time></trkpt><trkpt lat="42.0798016" lon="13.5493663"><ele>789.1666666666666</ele><time>2026-05-02T08:48:31.025Z</time></trkpt><trkpt lat="42.0798724" lon="13.5492892"><ele>789.0</ele><time>2026-05-02T08:48:33.032Z</time></trkpt><trkpt lat="42.0799663" lon="13.5491805"><ele>789.0</ele><time>2026-05-02T08:48:35.035Z</time></trkpt><trkpt lat="42.0800152" lon="13.5491249"><ele>789.0</ele><time>2026-05-02T08:48:36.028Z</time></trkpt><trkpt lat="42.0801138" lon="13.5490119"><ele>789.0</ele><time>2026-05-02T08:48:38.032Z</time></trkpt><trkpt lat="42.0801691" lon="13.548953"><ele>789.0</ele><time>2026-05-02T08:48:39.039Z</time></trkpt><trkpt lat="42.0802268" lon="13.5488857"><ele>789.0</ele><time>2026-05-02T08:48:40.033Z</time></trkpt><trkpt lat="42.0802889" lon="13.5488171"><ele>789.0</ele><time>2026-05-02T08:48:41.054Z</time></trkpt><trkpt lat="42.0803447" lon="13.5487494"><ele>787.5714285714286</ele><time>2026-05-02T08:48:42.023Z</time></trkpt><trkpt lat="42.0803993" lon="13.5486925"><ele>786.1428571428571</ele><time>2026-05-02T08:48:43.026Z</time></trkpt><trkpt lat="42.0804508" lon="13.5486349"><ele>784.7142857142858</ele><time>2026-05-02T08:48:44.028Z</time></trkpt><trkpt lat="42.0805046" lon="13.5485872"><ele>783.2857142857142</ele><time>2026-05-02T08:48:45.039Z</time></trkpt><trkpt lat="42.0805557" lon="13.5485357"><ele>781.8571428571429</ele><time>2026-05-02T08:48:46.031Z</time></trkpt><trkpt lat="42.0806079" lon="13.5484775"><ele>780.4285714285714</ele><time>2026-05-02T08:48:47.031Z</time></trkpt><trkpt lat="42.0806655" lon="13.5484215"><ele>779.0</ele><time>2026-05-02T08:48:48.052Z</time></trkpt><trkpt lat="42.0807262" lon="13.5483577"><ele>780.2</ele><time>2026-05-02T08:48:49.032Z</time></trkpt><trkpt lat="42.0807879" lon="13.5482882"><ele>781.4000000000001</ele><time>2026-05-02T08:48:50.046Z</time></trkpt><trkpt lat="42.0808596" lon="13.548221"><ele>782.6</ele><time>2026-05-02T08:48:51.027Z</time></trkpt><trkpt lat="42.080935" lon="13.5481374"><ele>783.8</ele><time>2026-05-02T08:48:52.027Z</time></trkpt><trkpt lat="42.0810156" lon="13.5480534"><ele>785.0</ele><time>2026-05-02T08:48:53.03Z</time></trkpt><trkpt lat="42.0810938" lon="13.5479583"><ele>782.2</ele><time>2026-05-02T08:48:54.029Z</time></trkpt><trkpt lat="42.0811733" lon="13.5478665"><ele>779.4</ele><time>2026-05-02T08:48:55.046Z</time></trkpt><trkpt lat="42.0812562" lon="13.5477755"><ele>776.5999999999999</ele><time>2026-05-02T08:48:56.025Z</time></trkpt><trkpt lat="42.0813351" lon="13.5476981"><ele>773.8</ele><time>2026-05-02T08:48:57.033Z</time></trkpt><trkpt lat="42.0814166" lon="13.5476258"><ele>771.0</ele><time>2026-05-02T08:48:58.028Z</time></trkpt><trkpt lat="42.0814968" lon="13.5475591"><ele>771.0</ele><time>2026-05-02T08:48:59.034Z</time></trkpt><trkpt lat="42.0815788" lon="13.5474986"><ele>771.0</ele><time>2026-05-02T08:49:00.025Z</time></trkpt><trkpt lat="42.0816623" lon="13.5474409"><ele>771.0</ele><time>2026-05-02T08:49:01.039Z</time></trkpt><trkpt lat="42.0817513" lon="13.5473916"><ele>771.0</ele><time>2026-05-02T08:49:02.029Z</time></trkpt><trkpt lat="42.0818402" lon="13.5473497"><ele>771.0</ele><time>2026-05-02T08:49:03.027Z</time></trkpt><trkpt lat="42.0819234" lon="13.5473128"><ele>771.3333333333334</ele><time>2026-05-02T08:49:04.027Z</time></trkpt><trkpt lat="42.0820036" lon="13.5472832"><ele>771.6666666666667</ele><time>2026-05-02T08:49:05.036Z</time></trkpt><trkpt lat="42.0820855" lon="13.5472524"><ele>772.0</ele><time>2026-05-02T08:49:06.027Z</time></trkpt><trkpt lat="42.0821591" lon="13.5472067"><ele>772.3333333333334</ele><time>2026-05-02T08:49:07.036Z</time></trkpt><trkpt lat="42.0822243" lon="13.5471409"><ele>772.6666666666667</ele><time>2026-05-02T08:49:08.029Z</time></trkpt><trkpt lat="42.0822777" lon="13.5470531"><ele>773.0</ele><time>2026-05-02T08:49:09.034Z</time></trkpt><trkpt lat="42.0823247" lon="13.5469418"><ele>773.5999999999999</ele><time>2026-05-02T08:49:10.028Z</time></trkpt><trkpt lat="42.0823726" lon="13.5468292"><ele>774.1999999999999</ele><time>2026-05-02T08:49:11.049Z</time></trkpt><trkpt lat="42.0824127" lon="13.5467042"><ele>774.8</ele><time>2026-05-02T08:49:12.024Z</time></trkpt><trkpt lat="42.0824481" lon="13.5465725"><ele>775.4</ele><time>2026-05-02T08:49:13.035Z</time></trkpt><trkpt lat="42.0824779" lon="13.5464409"><ele>776.0</ele><time>2026-05-02T08:49:14.027Z</time></trkpt><trkpt lat="42.0825061" lon="13.5463054"><ele>774.8</ele><time>2026-05-02T08:49:15.032Z</time></trkpt><trkpt lat="42.0825276" lon="13.5461586"><ele>773.5999999999999</ele><time>2026-05-02T08:49:16.024Z</time></trkpt><trkpt lat="42.0825465" lon="13.5460071"><ele>772.4</ele><time>2026-05-02T08:49:17.028Z</time></trkpt><trkpt lat="42.0825578" lon="13.5458718"><ele>771.2</ele><time>2026-05-02T08:49:18.028Z</time></trkpt><trkpt lat="42.0825674" lon="13.5457311"><ele>770.0</ele><time>2026-05-02T08:49:19.028Z</time></trkpt><trkpt lat="42.0825683" lon="13.5456105"><ele>770.0</ele><time>2026-05-02T08:49:20.022Z</time></trkpt><trkpt lat="42.0825587" lon="13.5455003"><ele>770.0</ele><time>2026-05-02T08:49:21.026Z</time></trkpt><trkpt lat="42.0825441" lon="13.5453803"><ele>770.0</ele><time>2026-05-02T08:49:22.038Z</time></trkpt><trkpt lat="42.0825318" lon="13.5452516"><ele>770.0</ele><time>2026-05-02T08:49:23.033Z</time></trkpt><trkpt lat="42.0825138" lon="13.5451219"><ele>770.0</ele><time>2026-05-02T08:49:24.021Z</time></trkpt><trkpt lat="42.0824932" lon="13.5449891"><ele>769.6</ele><time>2026-05-02T08:49:25.028Z</time></trkpt><trkpt lat="42.0824642" lon="13.5448621"><ele>769.2</ele><time>2026-05-02T08:49:26.025Z</time></trkpt><trkpt lat="42.0824355" lon="13.5447338"><ele>768.8</ele><time>2026-05-02T08:49:27.056Z</time></trkpt><trkpt lat="42.0824131" lon="13.5446086"><ele>768.4</ele><time>2026-05-02T08:49:28.027Z</time></trkpt><trkpt lat="42.0823919" lon="13.5444841"><ele>768.0</ele><time>2026-05-02T08:49:29.03Z</time></trkpt><trkpt lat="42.0823754" lon="13.5443682"><ele>765.6666666666666</ele><time>2026-05-02T08:49:30.023Z</time></trkpt><trkpt lat="42.0823652" lon="13.5442454"><ele>763.3333333333334</ele><time>2026-05-02T08:49:31.028Z</time></trkpt><trkpt lat="42.0823693" lon="13.5441169"><ele>761.0</ele><time>2026-05-02T08:49:32.026Z</time></trkpt><trkpt lat="42.0823806" lon="13.543991"><ele>758.6666666666667</ele><time>2026-05-02T08:49:33.024Z</time></trkpt><trkpt lat="42.0823855" lon="13.5438771"><ele>756.3333333333334</ele><time>2026-05-02T08:49:34.042Z</time></trkpt><trkpt lat="42.0823846" lon="13.5437688"><ele>754.0</ele><time>2026-05-02T08:49:35.031Z</time></trkpt><trkpt lat="42.0823726" lon="13.543666"><ele>753.5</ele><time>2026-05-02T08:49:36.031Z</time></trkpt><trkpt lat="42.0823578" lon="13.543578"><ele>753.0</ele><time>2026-05-02T08:49:37.024Z</time></trkpt><trkpt lat="42.0823513" lon="13.5434921"><ele>752.5</ele><time>2026-05-02T08:49:38.024Z</time></trkpt><trkpt lat="42.0823546" lon="13.5433811"><ele>752.0</ele><time>2026-05-02T08:49:40.028Z</time></trkpt><trkpt lat="42.0823241" lon="13.5432406"><ele>751.5</ele><time>2026-05-02T08:49:56.034Z</time></trkpt><trkpt lat="42.0823226" lon="13.5431447"><ele>751.0</ele><time>2026-05-02T08:49:57.03Z</time></trkpt><trkpt lat="42.0823354" lon="13.5430389"><ele>751.0</ele><time>2026-05-02T08:49:58.029Z</time></trkpt><trkpt lat="42.0823512" lon="13.5429488"><ele>751.0</ele><time>2026-05-02T08:49:59.031Z</time></trkpt><trkpt lat="42.0823985" lon="13.5428063"><ele>751.0</ele><time>2026-05-02T08:50:01.03Z</time></trkpt><trkpt lat="42.0824701" lon="13.5427063"><ele>751.0</ele><time>2026-05-02T08:50:03.046Z</time></trkpt><trkpt lat="42.0825291" lon="13.5426425"><ele>751.0</ele><time>2026-05-02T08:50:05.029Z</time></trkpt><trkpt lat="42.0825319" lon="13.5425454"><ele>751.0</ele><time>2026-05-02T08:50:07.027Z</time></trkpt><trkpt lat="42.0824724" lon="13.5424117"><ele>751.3333333333334</ele><time>2026-05-02T08:50:09.026Z</time></trkpt><trkpt lat="42.0824375" lon="13.5423339"><ele>751.6666666666667</ele><time>2026-05-02T08:50:10.027Z</time></trkpt><trkpt lat="42.0824015" lon="13.5422475"><ele>752.0</ele><time>2026-05-02T08:50:11.027Z</time></trkpt><trkpt lat="42.0823624" lon="13.5421577"><ele>752.3333333333334</ele><time>2026-05-02T08:50:12.035Z</time></trkpt><trkpt lat="42.0823244" lon="13.5420542"><ele>752.6666666666666</ele><time>2026-05-02T08:50:13.028Z</time></trkpt><trkpt lat="42.0822873" lon="13.5419563"><ele>753.0</ele><time>2026-05-02T08:50:14.06Z</time></trkpt><trkpt lat="42.0822436" lon="13.5418726"><ele>751.8333333333334</ele><time>2026-05-02T08:50:15.038Z</time></trkpt><trkpt lat="42.0822077" lon="13.5417845"><ele>750.6666666666666</ele><time>2026-05-02T08:50:16.027Z</time></trkpt><trkpt lat="42.0821711" lon="13.5416989"><ele>749.5</ele><time>2026-05-02T08:50:17.033Z</time></trkpt><trkpt lat="42.082132" lon="13.5416148"><ele>748.3333333333333</ele><time>2026-05-02T08:50:18.026Z</time></trkpt><trkpt lat="42.0820931" lon="13.5415456"><ele>747.1666666666666</ele><time>2026-05-02T08:50:19.037Z</time></trkpt><trkpt lat="42.0820273" lon="13.541427"><ele>746.0</ele><time>2026-05-02T08:50:21.029Z</time></trkpt><trkpt lat="42.0819664" lon="13.5413325"><ele>746.0</ele><time>2026-05-02T08:50:23.041Z</time></trkpt><trkpt lat="42.0818912" lon="13.5412439"><ele>746.0</ele><time>2026-05-02T08:50:25.034Z</time></trkpt><trkpt lat="42.0817954" lon="13.5411765"><ele>746.0</ele><time>2026-05-02T08:50:27.036Z</time></trkpt><trkpt lat="42.0816895" lon="13.5411194"><ele>746.0</ele><time>2026-05-02T08:50:29.04Z</time></trkpt><trkpt lat="42.0815723" lon="13.5410838"><ele>746.0</ele><time>2026-05-02T08:50:31.033Z</time></trkpt><trkpt lat="42.0814499" lon="13.5410567"><ele>745.8333333333333</ele><time>2026-05-02T08:50:33.044Z</time></trkpt><trkpt lat="42.0813218" lon="13.5410304"><ele>745.6666666666666</ele><time>2026-05-02T08:50:35.028Z</time></trkpt><trkpt lat="42.0812508" lon="13.5410174"><ele>745.5</ele><time>2026-05-02T08:50:36.03Z</time></trkpt><trkpt lat="42.0811791" lon="13.5410095"><ele>745.3333333333334</ele><time>2026-05-02T08:50:37.038Z</time></trkpt><trkpt lat="42.0811041" lon="13.5410073"><ele>745.1666666666667</ele><time>2026-05-02T08:50:38.041Z</time></trkpt><trkpt lat="42.0810283" lon="13.5410039"><ele>745.0</ele><time>2026-05-02T08:50:39.036Z</time></trkpt><trkpt lat="42.0809495" lon="13.5410055"><ele>745.0</ele><time>2026-05-02T08:50:40.036Z</time></trkpt><trkpt lat="42.0808633" lon="13.5410089"><ele>745.0</ele><time>2026-05-02T08:50:41.028Z</time></trkpt><trkpt lat="42.0807767" lon="13.5410129"><ele>745.0</ele><time>2026-05-02T08:50:42.043Z</time></trkpt><trkpt lat="42.0806872" lon="13.5410165"><ele>745.0</ele><time>2026-05-02T08:50:43.036Z</time></trkpt><trkpt lat="42.0805966" lon="13.5410189"><ele>745.0</ele><time>2026-05-02T08:50:44.033Z</time></trkpt><trkpt lat="42.0805046" lon="13.5410209"><ele>745.0</ele><time>2026-05-02T08:50:45.03Z</time></trkpt><trkpt lat="42.0804126" lon="13.5410251"><ele>744.8</ele><time>2026-05-02T08:50:46.034Z</time></trkpt><trkpt lat="42.0803214" lon="13.541031"><ele>744.6</ele><time>2026-05-02T08:50:47.037Z</time></trkpt><trkpt lat="42.080228" lon="13.5410341"><ele>744.4000000000001</ele><time>2026-05-02T08:50:48.032Z</time></trkpt><trkpt lat="42.0801366" lon="13.5410281"><ele>744.2</ele><time>2026-05-02T08:50:49.048Z</time></trkpt><trkpt lat="42.0800494" lon="13.5410023"><ele>744.0</ele><time>2026-05-02T08:50:50.045Z</time></trkpt><trkpt lat="42.0799642" lon="13.5409685"><ele>743.8333333333334</ele><time>2026-05-02T08:50:51.035Z</time></trkpt><trkpt lat="42.079884" lon="13.5409269"><ele>743.6666666666666</ele><time>2026-05-02T08:50:52.049Z</time></trkpt><trkpt lat="42.0798086" lon="13.5408639"><ele>743.5</ele><time>2026-05-02T08:50:53.042Z</time></trkpt><trkpt lat="42.0797431" lon="13.5407892"><ele>743.3333333333333</ele><time>2026-05-02T08:50:54.032Z</time></trkpt><trkpt lat="42.0796914" lon="13.540705"><ele>743.1666666666666</ele><time>2026-05-02T08:50:55.033Z</time></trkpt><trkpt lat="42.0796525" lon="13.5406079"><ele>743.0</ele><time>2026-05-02T08:50:56.038Z</time></trkpt><trkpt lat="42.0796271" lon="13.5405022"><ele>743.0</ele><time>2026-05-02T08:50:57.026Z</time></trkpt><trkpt lat="42.0796111" lon="13.5403964"><ele>743.0</ele><time>2026-05-02T08:50:58.032Z</time></trkpt><trkpt lat="42.0795948" lon="13.5402897"><ele>743.0</ele><time>2026-05-02T08:50:59.036Z</time></trkpt><trkpt lat="42.0795789" lon="13.5401753"><ele>743.0</ele><time>2026-05-02T08:51:00.036Z</time></trkpt><trkpt lat="42.0795582" lon="13.540057"><ele>743.0</ele><time>2026-05-02T08:51:01.037Z</time></trkpt><trkpt lat="42.0795361" lon="13.5399456"><ele>743.0</ele><time>2026-05-02T08:51:02.029Z</time></trkpt><trkpt lat="42.0795079" lon="13.5398396"><ele>743.3333333333333</ele><time>2026-05-02T08:51:03.041Z</time></trkpt><trkpt lat="42.0794653" lon="13.5397363"><ele>743.6666666666666</ele><time>2026-05-02T08:51:04.028Z</time></trkpt><trkpt lat="42.0794168" lon="13.5396422"><ele>744.0</ele><time>2026-05-02T08:51:05.045Z</time></trkpt><trkpt lat="42.0793635" lon="13.5395635"><ele>744.3333333333334</ele><time>2026-05-02T08:51:06.036Z</time></trkpt><trkpt lat="42.0793158" lon="13.539492"><ele>744.6666666666667</ele><time>2026-05-02T08:51:07.035Z</time></trkpt><trkpt lat="42.079272" lon="13.5394174"><ele>745.0</ele><time>2026-05-02T08:51:08.034Z</time></trkpt><trkpt lat="42.0792272" lon="13.5393416"><ele>744.2857142857142</ele><time>2026-05-02T08:51:09.03Z</time></trkpt><trkpt lat="42.0791809" lon="13.5392675"><ele>743.5714285714286</ele><time>2026-05-02T08:51:10.033Z</time></trkpt><trkpt lat="42.0791285" lon="13.5391968"><ele>742.8571428571429</ele><time>2026-05-02T08:51:11.032Z</time></trkpt><trkpt lat="42.079077" lon="13.5391346"><ele>742.1428571428571</ele><time>2026-05-02T08:51:12.031Z</time></trkpt><trkpt lat="42.0790227" lon="13.5390814"><ele>741.4285714285714</ele><time>2026-05-02T08:51:13.041Z</time></trkpt><trkpt lat="42.07896" lon="13.539038"><ele>740.7142857142857</ele><time>2026-05-02T08:51:14.033Z</time></trkpt><trkpt lat="42.0788971" lon="13.5390032"><ele>740.0</ele><time>2026-05-02T08:51:15.039Z</time></trkpt><trkpt lat="42.0788304" lon="13.5389769"><ele>739.4</ele><time>2026-05-02T08:51:16.02Z</time></trkpt><trkpt lat="42.0787247" lon="13.5389522"><ele>738.8</ele><time>2026-05-02T08:51:18.032Z</time></trkpt><trkpt lat="42.0786388" lon="13.5389369"><ele>738.2</ele><time>2026-05-02T08:51:20.056Z</time></trkpt><trkpt lat="42.0785388" lon="13.5389404"><ele>737.6</ele><time>2026-05-02T08:51:22.032Z</time></trkpt><trkpt lat="42.0784353" lon="13.5389926"><ele>737.0</ele><time>2026-05-02T08:51:24.03Z</time></trkpt><trkpt lat="42.0783776" lon="13.5390408"><ele>737.0</ele><time>2026-05-02T08:51:26.041Z</time></trkpt><trkpt lat="42.0783065" lon="13.5390479"><ele>737.0</ele><time>2026-05-02T08:55:22.024Z</time></trkpt><trkpt lat="42.0782276" lon="13.5390491"><ele>737.0</ele><time>2026-05-02T08:55:25.031Z</time></trkpt><trkpt lat="42.0781426" lon="13.5390962"><ele>737.0</ele><time>2026-05-02T08:55:27.052Z</time></trkpt><trkpt lat="42.0780139" lon="13.5391661"><ele>737.0</ele><time>2026-05-02T08:55:29.045Z</time></trkpt><trkpt lat="42.0779312" lon="13.539208"><ele>736.2</ele><time>2026-05-02T08:55:30.023Z</time></trkpt><trkpt lat="42.0778437" lon="13.5392517"><ele>735.4000000000001</ele><time>2026-05-02T08:55:31.028Z</time></trkpt><trkpt lat="42.0777513" lon="13.5393019"><ele>734.5999999999999</ele><time>2026-05-02T08:55:32.029Z</time></trkpt><trkpt lat="42.0776614" lon="13.5393513"><ele>733.8</ele><time>2026-05-02T08:55:33.029Z</time></trkpt><trkpt lat="42.0775815" lon="13.5394015"><ele>733.0</ele><time>2026-05-02T08:55:34.029Z</time></trkpt><trkpt lat="42.0775085" lon="13.5394324"><ele>733.0</ele><time>2026-05-02T08:55:35.029Z</time></trkpt><trkpt lat="42.0774356" lon="13.5394635"><ele>733.0</ele><time>2026-05-02T08:55:36.039Z</time></trkpt><trkpt lat="42.0773679" lon="13.5394895"><ele>733.0</ele><time>2026-05-02T08:55:37.04Z</time></trkpt><trkpt lat="42.0772593" lon="13.5394739"><ele>733.0</ele><time>2026-05-02T08:55:39.03Z</time></trkpt><trkpt lat="42.0772274" lon="13.5393383"><ele>733.0</ele><time>2026-05-02T08:55:41.041Z</time></trkpt><trkpt lat="42.0772271" lon="13.5392357"><ele>733.0</ele><time>2026-05-02T08:55:42.026Z</time></trkpt><trkpt lat="42.0772191" lon="13.5390985"><ele>732.0</ele><time>2026-05-02T08:55:43.034Z</time></trkpt><trkpt lat="42.0772108" lon="13.5389545"><ele>731.0</ele><time>2026-05-02T08:55:44.028Z</time></trkpt><trkpt lat="42.0771925" lon="13.5388098"><ele>730.0</ele><time>2026-05-02T08:55:45.033Z</time></trkpt><trkpt lat="42.0771692" lon="13.538665"><ele>729.0</ele><time>2026-05-02T08:55:46.03Z</time></trkpt><trkpt lat="42.077144" lon="13.5385167"><ele>728.0</ele><time>2026-05-02T08:55:47.029Z</time></trkpt><trkpt lat="42.0771139" lon="13.5383667"><ele>728.0</ele><time>2026-05-02T08:55:48.035Z</time></trkpt><trkpt lat="42.0770908" lon="13.5382087"><ele>728.0</ele><time>2026-05-02T08:55:49.034Z</time></trkpt><trkpt lat="42.0770605" lon="13.5380541"><ele>728.0</ele><time>2026-05-02T08:55:50.033Z</time></trkpt><trkpt lat="42.0770346" lon="13.5378996"><ele>728.0</ele><time>2026-05-02T08:55:51.037Z</time></trkpt><trkpt lat="42.0770021" lon="13.5377549"><ele>728.0</ele><time>2026-05-02T08:55:52.028Z</time></trkpt><trkpt lat="42.0769752" lon="13.5376139"><ele>728.0</ele><time>2026-05-02T08:55:53.054Z</time></trkpt><trkpt lat="42.0769497" lon="13.5374704"><ele>728.0</ele><time>2026-05-02T08:55:54.024Z</time></trkpt><trkpt lat="42.0769217" lon="13.537343"><ele>728.0</ele><time>2026-05-02T08:55:55.034Z</time></trkpt><trkpt lat="42.0768947" lon="13.5372158"><ele>728.0</ele><time>2026-05-02T08:55:56.024Z</time></trkpt><trkpt lat="42.0768684" lon="13.5370629"><ele>727.75</ele><time>2026-05-02T08:55:57.035Z</time></trkpt><trkpt lat="42.0768267" lon="13.5369048"><ele>727.5</ele><time>2026-05-02T08:55:58.029Z</time></trkpt><trkpt lat="42.0767913" lon="13.5367411"><ele>727.25</ele><time>2026-05-02T08:55:59.036Z</time></trkpt><trkpt lat="42.076756" lon="13.5365638"><ele>727.0</ele><time>2026-05-02T08:56:00.036Z</time></trkpt><trkpt lat="42.076723" lon="13.5363757"><ele>726.3333333333334</ele><time>2026-05-02T08:56:01.032Z</time></trkpt><trkpt lat="42.0766884" lon="13.5361795"><ele>725.6666666666666</ele><time>2026-05-02T08:56:02.026Z</time></trkpt><trkpt lat="42.0766557" lon="13.5359828"><ele>725.0</ele><time>2026-05-02T08:56:03.031Z</time></trkpt><trkpt lat="42.0766192" lon="13.5357767"><ele>724.0</ele><time>2026-05-02T08:56:04.034Z</time></trkpt><trkpt lat="42.0765822" lon="13.5355717"><ele>723.0</ele><time>2026-05-02T08:56:05.036Z</time></trkpt><trkpt lat="42.0765424" lon="13.5353718"><ele>722.0</ele><time>2026-05-02T08:56:06.034Z</time></trkpt><trkpt lat="42.0764921" lon="13.535191"><ele>722.0</ele><time>2026-05-02T08:56:07.037Z</time></trkpt><trkpt lat="42.07643" lon="13.5350179"><ele>722.0</ele><time>2026-05-02T08:56:08.027Z</time></trkpt><trkpt lat="42.0763672" lon="13.5348594"><ele>722.0</ele><time>2026-05-02T08:56:09.031Z</time></trkpt><trkpt lat="42.0763063" lon="13.5347066"><ele>722.0</ele><time>2026-05-02T08:56:10.025Z</time></trkpt><trkpt lat="42.0762501" lon="13.5345561"><ele>722.25</ele><time>2026-05-02T08:56:11.029Z</time></trkpt><trkpt lat="42.0761916" lon="13.5344119"><ele>722.5</ele><time>2026-05-02T08:56:12.031Z</time></trkpt><trkpt lat="42.0761346" lon="13.5342663"><ele>722.75</ele><time>2026-05-02T08:56:13.03Z</time></trkpt><trkpt lat="42.0760812" lon="13.5341316"><ele>723.0</ele><time>2026-05-02T08:56:14.022Z</time></trkpt><trkpt lat="42.0760278" lon="13.5339851"><ele>723.0</ele><time>2026-05-02T08:56:15.04Z</time></trkpt><trkpt lat="42.075971" lon="13.5338387"><ele>723.0</ele><time>2026-05-02T08:56:16.031Z</time></trkpt><trkpt lat="42.0759105" lon="13.5336864"><ele>723.0</ele><time>2026-05-02T08:56:17.032Z</time></trkpt><trkpt lat="42.0758449" lon="13.5335326"><ele>723.0</ele><time>2026-05-02T08:56:18.032Z</time></trkpt><trkpt lat="42.0757776" lon="13.5333582"><ele>722.3333333333334</ele><time>2026-05-02T08:56:19.027Z</time></trkpt><trkpt lat="42.0757052" lon="13.5331783"><ele>721.6666666666667</ele><time>2026-05-02T08:56:20.023Z</time></trkpt><trkpt lat="42.0756267" lon="13.5329933"><ele>721.0</ele><time>2026-05-02T08:56:21.035Z</time></trkpt><trkpt lat="42.0755415" lon="13.5328008"><ele>721.0</ele><time>2026-05-02T08:56:22.034Z</time></trkpt><trkpt lat="42.0754568" lon="13.5326042"><ele>721.0</ele><time>2026-05-02T08:56:23.029Z</time></trkpt><trkpt lat="42.0753748" lon="13.5324094"><ele>721.0</ele><time>2026-05-02T08:56:24.031Z</time></trkpt><trkpt lat="42.0752975" lon="13.532214"><ele>720.6666666666667</ele><time>2026-05-02T08:56:25.037Z</time></trkpt><trkpt lat="42.0752242" lon="13.5320286"><ele>720.3333333333334</ele><time>2026-05-02T08:56:26.03Z</time></trkpt><trkpt lat="42.0751514" lon="13.5318429"><ele>720.0</ele><time>2026-05-02T08:56:27.028Z</time></trkpt><trkpt lat="42.0750776" lon="13.5316592"><ele>720.0</ele><time>2026-05-02T08:56:28.063Z</time></trkpt><trkpt lat="42.0750005" lon="13.5314687"><ele>720.0</ele><time>2026-05-02T08:56:29.027Z</time></trkpt><trkpt lat="42.0749304" lon="13.5312834"><ele>720.0</ele><time>2026-05-02T08:56:30.033Z</time></trkpt><trkpt lat="42.0748653" lon="13.5311206"><ele>719.6</ele><time>2026-05-02T08:56:31.03Z</time></trkpt><trkpt lat="42.0748125" lon="13.5309689"><ele>719.2</ele><time>2026-05-02T08:56:32.038Z</time></trkpt><trkpt lat="42.0747651" lon="13.5308421"><ele>718.8</ele><time>2026-05-02T08:56:33.029Z</time></trkpt><trkpt lat="42.0747293" lon="13.530736"><ele>718.4</ele><time>2026-05-02T08:56:34.025Z</time></trkpt><trkpt lat="42.0746974" lon="13.5306584"><ele>718.0</ele><time>2026-05-02T08:56:35.029Z</time></trkpt><trkpt lat="42.0746372" lon="13.5305828"><ele>718.0</ele><time>2026-05-02T08:56:37.032Z</time></trkpt><trkpt lat="42.0745876" lon="13.5305249"><ele>718.0</ele><time>2026-05-02T08:56:53.03Z</time></trkpt></trkseg></trk></gpx>